SondeTracker

Meteorological Radiosondes Database

Operations

Sounding was ended - last measurement: 2022-12-07 14:24:22z

MAP
About Radiosonde

Number: D22037103 (22037103)

Launch Site: Blacksburg [VA] (US)

Type: DFM17

AUX: NO

Frequency: 404.010 MHz

Max Speed: 259 km/h at 34783 m

Average Speed: 104.62 km/h

Max Altitude: 34860 m

Average Ascent Speed: 5.26 m/s

Average Descent Speed: 8.56 m/s

Status: UNKNOWN

Status Changes
Launch Site Type AUX Frequency Status Finder Landing Point Description Changes made by
APRS Statistics

Received Frames: 790

First Frame [UTC]: 2022-12-07 11:39:41z

Last Frame [UTC]: 2022-12-07 14:24:22z

Receivers: K4KDR-12, KG4IFE-1, W4DEX-14, W4KZK-14

Flight Time: 02:44:41 h

Distance From First Measurement: 254.84 km

Nearest City: Petersburg [VA] (US) [36.09 km]

Nearest Hunter: [0.00 km]

Ground Altitude: 49 m

Distance from QTH: 0.00 km

APRS Data
Receiver Number Date/Time [UTC] φ λ Course [°] Speed [km/h] Altitude [m] Description
K4KDR-12D220371032022-12-07 14:24:2236.893-77.506163462589Clb=-2.4m/s t=5.5C h=-1.0% p=-1.0hPa 404.010 MHz Type=DFM17 ser=22037103 Radiosonde
K4KDR-12D220371032022-12-07 14:23:2136.8928-77.506564432596Clb=-2.6m/s t=5.4C h=-1.0% p=-1.0hPa 404.010 MHz Type=DFM17 ser=22037103 Radiosonde
K4KDR-12D220371032022-12-07 14:22:2036.8888-77.514665372869Clb=-3.8m/s t=3.6C h=-1.0% p=-1.0hPa 404.010 MHz Type=DFM17 ser=22037103 Radiosonde
K4KDR-12D220371032022-12-07 14:21:1936.8866-77.520469463023Clb=-3.9m/s t=2.5C h=-1.0% p=-1.0hPa 404.010 MHz Type=DFM17 ser=22037103 Radiosonde
K4KDR-12D220371032022-12-07 14:20:1836.8845-77.528976443301Clb=-3.7m/s t=1.3C h=-1.0% p=-1.0hPa 404.010 MHz Type=DFM17 ser=22037103 Radiosonde
K4KDR-12D220371032022-12-07 14:19:1736.882-77.536664393538Clb=-3.4m/s t=-0.8C h=-1.0% p=-1.0hPa 404.010 MHz Type=DFM17 ser=22037103 Radiosonde
K4KDR-12D220371032022-12-07 14:18:1636.8787-77.54676503796Clb=-3.9m/s t=-3.0C h=-1.0% p=-1.0hPa 404.010 MHz Type=DFM17 ser=22037103 Radiosonde
K4KDR-12D220371032022-12-07 14:17:1536.8769-77.555579484085Clb=-4.9m/s t=-5.5C h=-1.0% p=-1.0hPa 404.010 MHz Type=DFM17 ser=22037103 Radiosonde
K4KDR-12D220371032022-12-07 14:16:1436.8753-77.561668444281Clb=-3.8m/s t=-7.0C h=-1.0% p=-1.0hPa 404.010 MHz Type=DFM17 ser=22037103 Radiosonde
K4KDR-12D220371032022-12-07 14:15:1336.871-77.578180594816Clb=-5.2m/s t=-7.8C h=-1.0% p=-1.0hPa 404.010 MHz Type=DFM17 ser=22037103 Radiosonde
K4KDR-12D220371032022-12-07 14:13:1136.8661-77.597868705207Clb=-4.0m/s t=-9.9C h=-1.0% p=-1.0hPa 404.010 MHz Type=DFM17 ser=22037103 Radiosonde
K4KDR-12D220371032022-12-07 14:12:1036.863-77.607869705407Clb=-3.8m/s t=-11.4C h=-1.0% p=-1.0hPa 404.010 MHz Type=DFM17 ser=22037103 Radiosonde
K4KDR-12D220371032022-12-07 14:11:0836.8596-77.621978765660Clb=-4.2m/s t=-12.5C h=-1.0% p=-1.0hPa 404.010 MHz Type=DFM17 ser=22037103 Radiosonde
W4DEX-14D220371032022-12-07 14:10:4136.8588-77.62885805768Clb=-4.2m/s Type=DFM17 ser=[BC]22037103 Details on http://radiosondy.info
W4DEX-14D220371032022-12-07 14:10:2636.8585-77.631785805838Clb=-4.1m/s Type=DFM17 ser=[BC]22037103 Details on http://radiosondy.info
W4DEX-14D220371032022-12-07 14:10:1436.8582-77.635487805903Clb=-4.2m/s Type=DFM17 ser=[BC]22037103 Details on http://radiosondy.info
K4KDR-12D220371032022-12-07 14:10:0836.8582-77.636785805920Clb=-4.5m/s t=-13.6C h=-1.0% p=-1.0hPa 404.010 MHz Type=DFM17 ser=22037103 Radiosonde
W4DEX-14D220371032022-12-07 14:09:5636.8581-77.639188815970Clb=-4.1m/s Type=DFM17 ser=[BC]22037103 Details on http://radiosondy.info
W4DEX-14D220371032022-12-07 14:09:4136.858-77.642991836036Clb=-4.3m/s Type=DFM17 ser=[BC]22037103 Details on http://radiosondy.info
W4DEX-14D220371032022-12-07 14:09:2636.8579-77.646890856099Clb=-4.1m/s Type=DFM17 ser=[BC]22037103 Details on http://radiosondy.info
W4DEX-14D220371032022-12-07 14:09:1136.8579-77.650891836161Clb=-4.0m/s Type=DFM17 ser=[BC]22037103 Details on http://radiosondy.info
K4KDR-12D220371032022-12-07 14:09:0636.8579-77.652489816181Clb=-3.7m/s t=-15.5C h=-1.0% p=-1.0hPa 404.010 MHz Type=DFM17 ser=22037103 Radiosonde
W4DEX-14D220371032022-12-07 14:08:5636.8579-77.654791816223Clb=-4.0m/s Type=DFM17 ser=[BC]22037103 Details on http://radiosondy.info
W4DEX-14D220371032022-12-07 14:08:4136.8579-77.658589816287Clb=-3.8m/s Type=DFM17 ser=[BC]22037103 Details on http://radiosondy.info
W4DEX-14D220371032022-12-07 14:08:2636.8578-77.662390816351Clb=-3.9m/s Type=DFM17 ser=[BC]22037103 Details on http://radiosondy.info
W4DEX-14D220371032022-12-07 14:08:1136.8578-77.666189816415Clb=-4.0m/s Type=DFM17 ser=[BC]22037103 Details on http://radiosondy.info
K4KDR-12D220371032022-12-07 14:08:0536.8578-77.668189816444Clb=-4.0m/s t=-17.3C h=-1.0% p=-1.0hPa 404.010 MHz Type=DFM17 ser=22037103 Radiosonde
W4DEX-14D220371032022-12-07 14:07:5636.8577-77.669990806477Clb=-3.7m/s Type=DFM17 ser=[BC]22037103 Details on http://radiosondy.info
W4DEX-14D220371032022-12-07 14:07:4136.8577-77.673791786536Clb=-4.0m/s Type=DFM17 ser=[BC]22037103 Details on http://radiosondy.info
W4DEX-14D220371032022-12-07 14:07:2636.8577-77.677391766603Clb=-4.6m/s Type=DFM17 ser=[BC]22037103 Details on http://radiosondy.info
W4DEX-14D220371032022-12-07 14:07:1136.8577-77.680890766669Clb=-4.6m/s Type=DFM17 ser=[BC]22037103 Details on http://radiosondy.info
K4KDR-12D220371032022-12-07 14:07:0436.8577-77.684189746725Clb=-4.3m/s t=-19.4C h=-1.0% p=-1.0hPa 404.010 MHz Type=DFM17 ser=22037103 Radiosonde
W4DEX-14D220371032022-12-07 14:06:5636.8577-77.684392766734Clb=-4.2m/s Type=DFM17 ser=[BC]22037103 Details on http://radiosondy.info
W4DEX-14D220371032022-12-07 14:06:4136.8578-77.687992766799Clb=-4.4m/s Type=DFM17 ser=[BC]22037103 Details on http://radiosondy.info
W4DEX-14D220371032022-12-07 14:06:2636.8578-77.691491766861Clb=-4.1m/s Type=DFM17 ser=[BC]22037103 Details on http://radiosondy.info
W4DEX-14D220371032022-12-07 14:06:1136.8579-77.69592766921Clb=-4.1m/s Type=DFM17 ser=[BC]22037103 Details on http://radiosondy.info
K4KDR-12D220371032022-12-07 14:06:0336.858-77.697192766955Clb=-4.1m/s t=-21.0C h=-1.0% p=-1.0hPa 404.010 MHz Type=DFM17 ser=22037103 Radiosonde
W4DEX-14D220371032022-12-07 14:05:5636.8581-77.698594746983Clb=-4.2m/s Type=DFM17 ser=[BC]22037103 Details on http://radiosondy.info
W4DEX-14D220371032022-12-07 14:05:4136.8582-77.70293747047Clb=-4.0m/s Type=DFM17 ser=[BC]22037103 Details on http://radiosondy.info
W4DEX-14D220371032022-12-07 14:05:2636.8583-77.705495747109Clb=-4.2m/s Type=DFM17 ser=[BC]22037103 Details on http://radiosondy.info
W4DEX-14D220371032022-12-07 14:05:1136.8584-77.708894727171Clb=-4.1m/s Type=DFM17 ser=[BC]22037103 Details on http://radiosondy.info
K4KDR-12D220371032022-12-07 14:05:0236.8587-77.712493727233Clb=-4.2m/s t=-23.0C h=-1.0% p=-1.0hPa 404.010 MHz Type=DFM17 ser=22037103 Radiosonde
W4DEX-14D220371032022-12-07 14:04:5636.8587-77.712294727233Clb=-4.1m/s Type=DFM17 ser=[BC]22037103 Details on http://radiosondy.info
W4DEX-14D220371032022-12-07 14:04:4136.8589-77.715695727295Clb=-4.2m/s Type=DFM17 ser=[BC]22037103 Details on http://radiosondy.info
W4DEX-14D220371032022-12-07 14:04:2636.8592-77.71996727358Clb=-4.2m/s Type=DFM17 ser=[BC]22037103 Details on http://radiosondy.info
K4KDR-12D220371032022-12-07 14:04:0136.8597-77.724996727463Clb=-4.6m/s t=-273.0C h=-1.0% p=-1.0hPa 404.010 MHz Type=DFM17 ser=22037103 Radiosonde
W4DEX-14D220371032022-12-07 14:03:5036.86-77.727199747522Clb=-4.2m/s Type=DFM17 ser=[BC]22037103 Details on http://radiosondy.info
W4DEX-14D220371032022-12-07 14:03:3436.8605-77.7307102727574Clb=-4.3m/s Type=DFM17 ser=[BC]22037103 Details on http://radiosondy.info
W4DEX-14D220371032022-12-07 14:03:1636.8612-77.7347103707655Clb=-4.3m/s Type=DFM17 ser=[BC]22037103 Details on http://radiosondy.info
W4DEX-14D220371032022-12-07 14:03:0136.8618-77.738103697720Clb=-4.3m/s Type=DFM17 ser=[BC]22037103 Details on http://radiosondy.info
W4DEX-14D220371032022-12-07 14:02:4636.8623-77.7411103697786Clb=-4.4m/s Type=DFM17 ser=[BC]22037103 Details on http://radiosondy.info
W4DEX-14D220371032022-12-07 14:02:3136.8628-77.7443100677852Clb=-4.3m/s Type=DFM17 ser=[BC]22037103 Details on http://radiosondy.info
W4DEX-14D220371032022-12-07 14:02:1636.8632-77.747498677919Clb=-4.3m/s Type=DFM17 ser=[BC]22037103 Details on http://radiosondy.info
W4DEX-14D220371032022-12-07 14:02:0136.8636-77.750599697984Clb=-4.7m/s Type=DFM17 ser=[BC]22037103 Details on http://radiosondy.info
W4DEX-14D220371032022-12-07 14:01:4636.864-77.753699728049Clb=-4.2m/s Type=DFM17 ser=[BC]22037103 Details on http://radiosondy.info
W4DEX-14D220371032022-12-07 14:01:3136.8644-77.7569101748117Clb=-4.6m/s Type=DFM17 ser=[BC]22037103 Details on http://radiosondy.info
W4DEX-14D220371032022-12-07 14:01:1636.8648-77.7603100728185Clb=-4.5m/s Type=DFM17 ser=[BC]22037103 Details on http://radiosondy.info
W4DEX-14D220371032022-12-07 14:01:0136.8652-77.7637100728256Clb=-4.7m/s Type=DFM17 ser=[BC]22037103 Details on http://radiosondy.info
K4KDR-12D220371032022-12-07 14:00:5836.8655-77.766199708304Clb=-4.8m/s t=-31.2C h=-1.0% p=-1.0hPa 404.010 MHz Type=DFM17 ser=22037103 Radiosonde
W4DEX-14D220371032022-12-07 14:00:4636.8657-77.767100708328Clb=-5.0m/s Type=DFM17 ser=[BC]22037103 Details on http://radiosondy.info
W4DEX-14D220371032022-12-07 14:00:3136.8661-77.7703100728401Clb=-4.9m/s Type=DFM17 ser=[BC]22037103 Details on http://radiosondy.info
W4DEX-14D220371032022-12-07 14:00:1636.8667-77.7736102748474Clb=-5.0m/s Type=DFM17 ser=[BC]22037103 Details on http://radiosondy.info
W4DEX-14D220371032022-12-07 14:00:0136.8672-77.777101748549Clb=-5.0m/s Type=DFM17 ser=[BC]22037103 Details on http://radiosondy.info
K4KDR-12D220371032022-12-07 13:59:5736.8673-77.7781100708569Clb=-5.2m/s t=-33.4C h=-1.0% p=-1.0hPa 404.010 MHz Type=DFM17 ser=22037103 Radiosonde
W4DEX-14D220371032022-12-07 13:59:4636.8677-77.7804101748626Clb=-5.3m/s Type=DFM17 ser=[BC]22037103 Details on http://radiosondy.info
W4DEX-14D220371032022-12-07 13:59:3136.8683-77.7838108808704Clb=-4.9m/s Type=DFM17 ser=[BC]22037103 Details on http://radiosondy.info
W4DEX-14D220371032022-12-07 13:59:1636.8692-77.7874108938796Clb=-6.2m/s Type=DFM17 ser=[BC]22037103 Details on http://radiosondy.info
W4DEX-14D220371032022-12-07 13:59:0136.8703-77.7915110918882Clb=-5.0m/s Type=DFM17 ser=[BC]22037103 Details on http://radiosondy.info
K4KDR-12D220371032022-12-07 13:58:5636.8707-77.7931110918908Clb=-5.0m/s t=-36.0C h=-1.0% p=-1.0hPa 404.010 MHz Type=DFM17 ser=22037103 Radiosonde
W4DEX-14D220371032022-12-07 13:58:4636.8714-77.7955110968957Clb=-5.1m/s Type=DFM17 ser=[BC]22037103 Details on http://radiosondy.info
W4DEX-14D220371032022-12-07 13:58:3136.8726-77.79971111009034Clb=-4.6m/s Type=DFM17 ser=[BC]22037103 Details on http://radiosondy.info
W4DEX-14D220371032022-12-07 13:58:1636.874-77.8041131069111Clb=-5.6m/s Type=DFM17 ser=[BC]22037103 Details on http://radiosondy.info
W4DEX-14D220371032022-12-07 13:58:0136.8754-77.80861121119195Clb=-5.7m/s Type=DFM17 ser=[BC]22037103 Details on http://radiosondy.info
W4DEX-14D220371032022-12-07 13:57:4636.877-77.81331121139278Clb=-5.5m/s Type=DFM17 ser=[BC]22037103 Details on http://radiosondy.info
W4DEX-14D220371032022-12-07 13:57:3136.8787-77.81821131139362Clb=-5.5m/s Type=DFM17 ser=[BC]22037103 Details on http://radiosondy.info
W4DEX-14D220371032022-12-07 13:57:1636.8803-77.8231151139443Clb=-5.4m/s Type=DFM17 ser=[BC]22037103 Details on http://radiosondy.info
W4DEX-14D220371032022-12-07 13:57:0136.8821-77.82791151119524Clb=-5.3m/s Type=DFM17 ser=[BC]22037103 Details on http://radiosondy.info
K4KDR-12D220371032022-12-07 13:56:5436.8834-77.83171131119583Clb=-5.5m/s t=-41.7C h=-1.0% p=-1.0hPa 404.010 MHz Type=DFM17 ser=22037103 Radiosonde
W4DEX-14D220371032022-12-07 13:56:4636.8838-77.83261151139605Clb=-5.8m/s Type=DFM17 ser=[BC]22037103 Details on http://radiosondy.info
W4DEX-14D220371032022-12-07 13:56:3136.8855-77.83741141159691Clb=-5.2m/s Type=DFM17 ser=[BC]22037103 Details on http://radiosondy.info
W4DEX-14D220371032022-12-07 13:56:1636.8872-77.84231141199774Clb=-5.4m/s Type=DFM17 ser=[BC]22037103 Details on http://radiosondy.info
W4DEX-14D220371032022-12-07 13:56:0136.889-77.84741131209852Clb=-5.6m/s Type=DFM17 ser=[BC]22037103 Details on http://radiosondy.info
K4KDR-12D220371032022-12-07 13:55:5336.8901-77.85091121199901Clb=-5.6m/s t=-44.4C h=-1.0% p=-1.0hPa 404.010 MHz Type=DFM17 ser=22037103 Radiosonde
W4DEX-14D220371032022-12-07 13:55:4636.8906-77.85261111229932Clb=-5.4m/s Type=DFM17 ser=[BC]22037103 Details on http://radiosondy.info
W4DEX-14D220371032022-12-07 13:55:3136.8922-77.85810912610012Clb=-5.5m/s Type=DFM17 ser=[BC]22037103 Details on http://radiosondy.info
W4DEX-14D220371032022-12-07 13:55:1636.8936-77.863610812810095Clb=-5.8m/s Type=DFM17 ser=[BC]22037103 Details on http://radiosondy.info
W4DEX-14D220371032022-12-07 13:55:0136.8951-77.869210813010178Clb=-5.8m/s Type=DFM17 ser=[BC]22037103 Details on http://radiosondy.info
K4KDR-12D220371032022-12-07 13:54:5136.8962-77.873410813110233Clb=-5.6m/s t=-47.1C h=-1.0% p=-1.0hPa 404.010 MHz Type=DFM17 ser=22037103 Radiosonde
W4DEX-14D220371032022-12-07 13:54:4636.8966-77.87511013110262Clb=-5.5m/s Type=DFM17 ser=[BC]22037103 Details on http://radiosondy.info
W4DEX-14D220371032022-12-07 13:54:3136.8982-77.880811013310347Clb=-5.8m/s Type=DFM17 ser=[BC]22037103 Details on http://radiosondy.info
W4DEX-14D220371032022-12-07 13:54:1636.8999-77.886711113910437Clb=-5.7m/s Type=DFM17 ser=[BC]22037103 Details on http://radiosondy.info
W4DEX-14D220371032022-12-07 13:54:0136.9019-77.892711213910525Clb=-5.8m/s Type=DFM17 ser=[BC]22037103 Details on http://radiosondy.info
K4KDR-12D220371032022-12-07 13:53:5036.9035-77.897811213710598Clb=-6.0m/s t=-50.1C h=-1.0% p=-1.0hPa 404.010 MHz Type=DFM17 ser=22037103 Radiosonde
W4DEX-14D220371032022-12-07 13:53:4636.9038-77.898611214410616Clb=-6.1m/s Type=DFM17 ser=[BC]22037103 Details on http://radiosondy.info
W4DEX-14D220371032022-12-07 13:53:3136.906-77.904811515210703Clb=-5.7m/s Type=DFM17 ser=[BC]22037103 Details on http://radiosondy.info
W4DEX-14D220371032022-12-07 13:53:1636.9084-77.911311515710790Clb=-5.6m/s Type=DFM17 ser=[BC]22037103 Details on http://radiosondy.info
W4DEX-14D220371032022-12-07 13:53:0136.9108-77.91811616110881Clb=-6.2m/s Type=DFM17 ser=[BC]22037103 Details on http://radiosondy.info
W4DEX-14D220371032022-12-07 13:52:4636.9134-77.924811516710970Clb=-5.9m/s Type=DFM17 ser=[BC]22037103 Details on http://radiosondy.info
W4DEX-14D220371032022-12-07 13:52:3136.916-77.931911617211060Clb=-6.1m/s Type=DFM17 ser=[BC]22037103 Details on http://radiosondy.info
W4DEX-14D220371032022-12-07 13:52:1636.9188-77.939111618011147Clb=-6.5m/s Type=DFM17 ser=[BC]22037103 Details on http://radiosondy.info
W4DEX-14D220371032022-12-07 13:52:0136.9218-77.946611818311236Clb=-6.0m/s Type=DFM17 ser=[BC]22037103 Details on http://radiosondy.info
K4KDR-12D220371032022-12-07 13:51:4836.9253-77.954611918111327Clb=-6.2m/s t=-55.3C h=-1.0% p=-1.0hPa 404.010 MHz Type=DFM17 ser=22037103 Radiosonde
W4DEX-14D220371032022-12-07 13:51:4636.9251-77.954112018111327Clb=-6.1m/s Type=DFM17 ser=[BC]22037103 Details on http://radiosondy.info
W4DEX-14D220371032022-12-07 13:51:3136.9285-77.961412118111419Clb=-6.5m/s Type=DFM17 ser=[BC]22037103 Details on http://radiosondy.info
W4DEX-14D220371032022-12-07 13:51:1636.932-77.968712218511510Clb=-6.2m/s Type=DFM17 ser=[BC]22037103 Details on http://radiosondy.info
W4DEX-14D220371032022-12-07 13:51:0136.9357-77.97612318711603Clb=-6.6m/s Type=DFM17 ser=[BC]22037103 Details on http://radiosondy.info
W4DEX-14D220371032022-12-07 13:50:4636.9395-77.983412418911696Clb=-6.1m/s Type=DFM17 ser=[BC]22037103 Details on http://radiosondy.info
W4DEX-14D220371032022-12-07 13:50:3136.9434-77.990712519311790Clb=-6.2m/s Type=DFM17 ser=[BC]22037103 Details on http://radiosondy.info
W4DEX-14D220371032022-12-07 13:50:1636.9474-77.998212519411882Clb=-6.1m/s Type=DFM17 ser=[BC]22037103 Details on http://radiosondy.info
W4DEX-14D220371032022-12-07 13:50:0136.9514-78.005812419811976Clb=-6.3m/s Type=DFM17 ser=[BC]22037103 Details on http://radiosondy.info
K4KDR-12D220371032022-12-07 13:49:4636.9557-78.01412319812069Clb=-6.1m/s t=-60.0C h=-1.0% p=-1.0hPa 404.010 MHz Type=DFM17 ser=22037103 Radiosonde
W4DEX-14D220371032022-12-07 13:49:3136.9597-78.021412420612164Clb=-6.1m/s Type=DFM17 ser=[BC]22037103 Details on http://radiosondy.info
W4DEX-14D220371032022-12-07 13:49:1636.9641-78.029312520712258Clb=-6.1m/s Type=DFM17 ser=[BC]22037103 Details on http://radiosondy.info
W4DEX-14D220371032022-12-07 13:49:0136.9685-78.037312620612352Clb=-5.9m/s Type=DFM17 ser=[BC]22037103 Details on http://radiosondy.info
W4DEX-14D220371032022-12-07 13:48:4636.9729-78.045112519812446Clb=-6.2m/s Type=DFM17 ser=[BC]22037103 Details on http://radiosondy.info
K4KDR-12D220371032022-12-07 13:48:4536.9735-78.046212420012452Clb=-6.1m/s t=-62.2C h=-1.0% p=-1.0hPa 404.010 MHz Type=DFM17 ser=22037103 Radiosonde
W4DEX-14D220371032022-12-07 13:48:3136.9772-78.052712718912538Clb=-5.9m/s Type=DFM17 ser=[BC]22037103 Details on http://radiosondy.info
KG4IFE-1D220371032022-12-07 13:48:2736.9802-78.05812518012600Clb=-5.7m/s t=-61.7C h=-1.0% p=-1.0hPa 404.010 MHz Type=DFM17 ser=22037103 Radiosonde
W4DEX-14D220371032022-12-07 13:48:1636.9812-78.059912617212637Clb=-7.0m/s Type=DFM17 ser=[BC]22037103 Details on http://radiosondy.info
W4DEX-14D220371032022-12-07 13:48:0136.985-78.066312815912736Clb=-6.6m/s Type=DFM17 ser=[BC]22037103 Details on http://radiosondy.info
KG4IFE-1D220371032022-12-07 13:47:5636.987-78.069412715612781Clb=-6.5m/s t=-59.8C h=-1.0% p=-1.0hPa 404.010 MHz Type=DFM17 ser=22037103 Radiosonde
W4DEX-14D220371032022-12-07 13:47:4636.9887-78.072212715212833Clb=-6.8m/s Type=DFM17 ser=[BC]22037103 Details on http://radiosondy.info
K4KDR-12D220371032022-12-07 13:47:4436.9894-78.073412615612847Clb=-6.7m/s t=-59.8C h=-1.0% p=-1.0hPa 404.010 MHz Type=DFM17 ser=22037103 Radiosonde
W4DEX-14D220371032022-12-07 13:47:3136.992-78.07812613512932Clb=-6.6m/s Type=DFM17 ser=[BC]22037103 Details on http://radiosondy.info
KG4IFE-1D220371032022-12-07 13:47:2536.9934-78.080512413112971Clb=-7.0m/s t=-58.3C h=-1.0% p=-1.0hPa 404.010 MHz Type=DFM17 ser=22037103 Radiosonde
W4DEX-14D220371032022-12-07 13:47:1636.9948-78.083212412613030Clb=-6.4m/s Type=DFM17 ser=[BC]22037103 Details on http://radiosondy.info
W4DEX-14D220371032022-12-07 13:47:0136.9972-78.088311912013132Clb=-6.9m/s Type=DFM17 ser=[BC]22037103 Details on http://radiosondy.info
KG4IFE-1D220371032022-12-07 13:46:5436.999-78.09311111913223Clb=-7.2m/s t=-59.0C h=-1.0% p=-1.0hPa 404.010 MHz Type=DFM17 ser=22037103 Radiosonde
W4DEX-14D220371032022-12-07 13:46:4636.9991-78.093411212213237Clb=-6.8m/s Type=DFM17 ser=[BC]22037103 Details on http://radiosondy.info
K4KDR-12D220371032022-12-07 13:46:4336.9995-78.094810911913257Clb=-7.1m/s t=-59.0C h=-1.0% p=-1.0hPa 404.010 MHz Type=DFM17 ser=22037103 Radiosonde
W4DEX-14D220371032022-12-07 13:46:3137.0006-78.098810813013342Clb=-6.7m/s Type=DFM17 ser=[BC]22037103 Details on http://radiosondy.info
KG4IFE-1D220371032022-12-07 13:46:2337.0015-78.102310712613398Clb=-7.0m/s t=-60.0C h=-1.0% p=-1.0hPa 404.010 MHz Type=DFM17 ser=22037103 Radiosonde
W4DEX-14D220371032022-12-07 13:46:1637.0021-78.104610913313447Clb=-7.0m/s Type=DFM17 ser=[BC]22037103 Details on http://radiosondy.info
W4DEX-14D220371032022-12-07 13:46:0137.0037-78.110511013713556Clb=-7.3m/s Type=DFM17 ser=[BC]22037103 Details on http://radiosondy.info
KG4IFE-1D220371032022-12-07 13:45:5237.0053-78.116210813513652Clb=-7.5m/s t=-61.3C h=-1.0% p=-1.0hPa 404.010 MHz Type=DFM17 ser=22037103 Radiosonde
W4DEX-14D220371032022-12-07 13:45:4637.0054-78.116611313113667Clb=-7.3m/s Type=DFM17 ser=[BC]22037103 Details on http://radiosondy.info
K4KDR-12D220371032022-12-07 13:45:4237.006-78.118511012613696Clb=-7.3m/s t=-61.4C h=-1.0% p=-1.0hPa 404.010 MHz Type=DFM17 ser=22037103 Radiosonde
W4DEX-14D220371032022-12-07 13:45:3237.0071-78.122311113013776Clb=-7.3m/s Type=DFM17 ser=[BC]22037103 Details on http://radiosondy.info
KG4IFE-1D220371032022-12-07 13:45:2137.0084-78.126810913113856Clb=-7.3m/s t=-61.8C h=-1.0% p=-1.0hPa 404.010 MHz Type=DFM17 ser=22037103 Radiosonde
W4DEX-14D220371032022-12-07 13:45:1637.0088-78.127911412813885Clb=-7.4m/s Type=DFM17 ser=[BC]22037103 Details on http://radiosondy.info
W4DEX-14D220371032022-12-07 13:45:0137.0106-78.133511411913996Clb=-7.4m/s Type=DFM17 ser=[BC]22037103 Details on http://radiosondy.info
KG4IFE-1D220371032022-12-07 13:44:5037.012-78.137511511514076Clb=-7.3m/s t=-61.7C h=-1.0% p=-1.0hPa 404.010 MHz Type=DFM17 ser=22037103 Radiosonde
W4DEX-14D220371032022-12-07 13:44:4637.0124-78.138411511114106Clb=-7.8m/s Type=DFM17 ser=[BC]22037103 Details on http://radiosondy.info
K4KDR-12D220371032022-12-07 13:44:4137.0131-78.140411510914144Clb=-7.7m/s t=-61.9C h=-1.0% p=-1.0hPa 404.010 MHz Type=DFM17 ser=22037103 Radiosonde
W4DEX-14D220371032022-12-07 13:44:3137.0141-78.143211410414221Clb=-7.4m/s Type=DFM17 ser=[BC]22037103 Details on http://radiosondy.info
KG4IFE-1D220371032022-12-07 13:44:1937.0153-78.147111010614312Clb=-7.4m/s t=-62.6C h=-1.0% p=-1.0hPa 404.010 MHz Type=DFM17 ser=22037103 Radiosonde
W4DEX-14D220371032022-12-07 13:44:1637.0155-78.147711210414335Clb=-7.4m/s Type=DFM17 ser=[BC]22037103 Details on http://radiosondy.info
W4DEX-14D220371032022-12-07 13:44:0137.017-78.152210910214448Clb=-7.3m/s Type=DFM17 ser=[BC]22037103 Details on http://radiosondy.info
KG4IFE-1D220371032022-12-07 13:43:4837.0182-78.156410910214547Clb=-7.3m/s t=-63.4C h=-1.0% p=-1.0hPa 404.010 MHz Type=DFM17 ser=22037103 Radiosonde
W4DEX-14D220371032022-12-07 13:43:4637.0183-78.15671109614562Clb=-7.6m/s Type=DFM17 ser=[BC]22037103 Details on http://radiosondy.info
K4KDR-12D220371032022-12-07 13:43:4037.019-78.15861109314607Clb=-7.4m/s t=-63.5C h=-1.0% p=-1.0hPa 404.010 MHz Type=DFM17 ser=22037103 Radiosonde
W4DEX-14D220371032022-12-07 13:43:3137.0197-78.16091129814674Clb=-7.3m/s Type=DFM17 ser=[BC]22037103 Details on http://radiosondy.info
KG4IFE-1D220371032022-12-07 13:43:1737.0213-78.16531119414784Clb=-7.3m/s t=-63.5C h=-1.0% p=-1.0hPa 404.010 MHz Type=DFM17 ser=22037103 Radiosonde
W4DEX-14D220371032022-12-07 13:43:1637.0212-78.1651129314784Clb=-7.3m/s Type=DFM17 ser=[BC]22037103 Details on http://radiosondy.info
W4DEX-14D220371032022-12-07 13:43:0137.0225-78.1691148314896Clb=-7.9m/s Type=DFM17 ser=[BC]22037103 Details on http://radiosondy.info
W4DEX-14D220371032022-12-07 13:42:4637.0235-78.17271048315009Clb=-7.6m/s Type=DFM17 ser=[BC]22037103 Details on http://radiosondy.info
K4KDR-12D220371032022-12-07 13:42:3937.0241-78.17521047615078Clb=-7.5m/s t=-65.4C h=-1.0% p=-1.0hPa 404.010 MHz Type=DFM17 ser=22037103 Radiosonde
W4DEX-14D220371032022-12-07 13:42:3137.0243-78.17651038715126Clb=-8.3m/s Type=DFM17 ser=[BC]22037103 Details on http://radiosondy.info
W4DEX-14D220371032022-12-07 13:42:1637.025-78.18041048715246Clb=-7.8m/s Type=DFM17 ser=[BC]22037103 Details on http://radiosondy.info
KG4IFE-1D220371032022-12-07 13:42:1437.0251-78.1812978315262Clb=-7.9m/s t=-66.8C h=-1.0% p=-1.0hPa 404.010 MHz Type=DFM17 ser=22037103 Radiosonde
W4DEX-14D220371032022-12-07 13:42:0137.0254-78.1844929115366Clb=-7.9m/s Type=DFM17 ser=[BC]22037103 Details on http://radiosondy.info
W4DEX-14D220371032022-12-07 13:41:4637.0256-78.1887979415487Clb=-8.0m/s Type=DFM17 ser=[BC]22037103 Details on http://radiosondy.info
KG4IFE-1D220371032022-12-07 13:41:4337.0257-78.1898958715511Clb=-7.9m/s t=-68.2C h=-1.0% p=-1.0hPa 404.010 MHz Type=DFM17 ser=22037103 Radiosonde
K4KDR-12D220371032022-12-07 13:41:3837.0258-78.19169710015561Clb=-8.4m/s t=-68.4C h=-1.0% p=-1.0hPa 404.010 MHz Type=DFM17 ser=22037103 Radiosonde
W4DEX-14D220371032022-12-07 13:41:3137.026-78.1931989415611Clb=-7.9m/s Type=DFM17 ser=[BC]22037103 Details on http://radiosondy.info
W4DEX-14D220371032022-12-07 13:41:1637.0262-78.1975939815735Clb=-8.2m/s Type=DFM17 ser=[BC]22037103 Details on http://radiosondy.info
KG4IFE-1D220371032022-12-07 13:41:1237.0264-78.19911009815769Clb=-8.3m/s t=-69.1C h=-1.0% p=-1.0hPa 404.010 MHz Type=DFM17 ser=22037103 Radiosonde
W4DEX-14D220371032022-12-07 13:41:0137.0266-78.20219710215860Clb=-8.7m/s Type=DFM17 ser=[BC]22037103 Details on http://radiosondy.info
W4DEX-14D220371032022-12-07 13:40:4637.0269-78.20689410715989Clb=-8.1m/s Type=DFM17 ser=[BC]22037103 Details on http://radiosondy.info
KG4IFE-1D220371032022-12-07 13:40:4137.0271-78.20899710216032Clb=-8.7m/s t=-70.0C h=-1.0% p=-1.0hPa 404.010 MHz Type=DFM17 ser=22037103 Radiosonde
K4KDR-12D220371032022-12-07 13:40:3737.0272-78.21029110616067Clb=-8.8m/s t=-69.9C h=-1.0% p=-1.0hPa 404.010 MHz Type=DFM17 ser=22037103 Radiosonde
W4DEX-14D220371032022-12-07 13:40:3137.0273-78.21199610616120Clb=-8.6m/s Type=DFM17 ser=[BC]22037103 Details on http://radiosondy.info
W4DEX-14D220371032022-12-07 13:40:1637.0276-78.21679211516252Clb=-8.7m/s Type=DFM17 ser=[BC]22037103 Details on http://radiosondy.info
KG4IFE-1D220371032022-12-07 13:40:1037.0277-78.21929711516304Clb=-8.3m/s t=-70.7C h=-1.0% p=-1.0hPa 404.010 MHz Type=DFM17 ser=22037103 Radiosonde
W4DEX-14D220371032022-12-07 13:40:0137.0278-78.22219611716384Clb=-8.8m/s Type=DFM17 ser=[BC]22037103 Details on http://radiosondy.info
W4DEX-14D220371032022-12-07 13:39:4637.0283-78.22759811516516Clb=-9.1m/s Type=DFM17 ser=[BC]22037103 Details on http://radiosondy.info
KG4IFE-1D220371032022-12-07 13:39:3937.0287-78.23049810916578Clb=-9.1m/s t=-70.1C h=-1.0% p=-1.0hPa 404.010 MHz Type=DFM17 ser=22037103 Radiosonde
K4KDR-12D220371032022-12-07 13:39:3637.0288-78.231410011716606Clb=-8.9m/s t=-70.2C h=-1.0% p=-1.0hPa 404.010 MHz Type=DFM17 ser=22037103 Radiosonde
W4DEX-14D220371032022-12-07 13:39:3137.029-78.232810610716652Clb=-9.1m/s Type=DFM17 ser=[BC]22037103 Details on http://radiosondy.info
W4DEX-14D220371032022-12-07 13:39:1637.0301-78.237610510216789Clb=-8.7m/s Type=DFM17 ser=[BC]22037103 Details on http://radiosondy.info
KG4IFE-1D220371032022-12-07 13:39:0837.0307-78.240310410416861Clb=-8.8m/s t=-70.7C h=-1.0% p=-1.0hPa 404.010 MHz Type=DFM17 ser=22037103 Radiosonde
W4DEX-14D220371032022-12-07 13:39:0137.0311-78.242210410416925Clb=-9.5m/s Type=DFM17 ser=[BC]22037103 Details on http://radiosondy.info
W4DEX-14D220371032022-12-07 13:38:4637.0318-78.246910210717063Clb=-8.9m/s Type=DFM17 ser=[BC]22037103 Details on http://radiosondy.info
KG4IFE-1D220371032022-12-07 13:38:3737.0324-78.250210511117147Clb=-9.3m/s t=-70.1C h=-1.0% p=-1.0hPa 404.010 MHz Type=DFM17 ser=22037103 Radiosonde
K4KDR-12D220371032022-12-07 13:38:3537.0327-78.251210910917175Clb=-9.4m/s t=-69.8C h=-1.0% p=-1.0hPa 404.010 MHz Type=DFM17 ser=22037103 Radiosonde
W4DEX-14D220371032022-12-07 13:38:3137.0328-78.251710810017203Clb=-9.2m/s Type=DFM17 ser=[BC]22037103 Details on http://radiosondy.info
W4DEX-14D220371032022-12-07 13:38:1637.034-78.256110210917349Clb=-9.5m/s Type=DFM17 ser=[BC]22037103 Details on http://radiosondy.info
KG4IFE-1D220371032022-12-07 13:38:0637.035-78.259710310417442Clb=-10.0m/s t=-67.2C h=-1.0% p=-1.0hPa 404.010 MHz Type=DFM17 ser=22037103 Radiosonde
W4DEX-14D220371032022-12-07 13:38:0137.0354-78.2611229317492Clb=-9.4m/s Type=DFM17 ser=[BC]22037103 Details on http://radiosondy.info
W4DEX-14D220371032022-12-07 13:37:4637.0369-78.26481177817631Clb=-9.0m/s Type=DFM17 ser=[BC]22037103 Details on http://radiosondy.info
KG4IFE-1D220371032022-12-07 13:37:3537.0385-78.26691065717733Clb=-9.1m/s t=-67.0C h=-1.0% p=-1.0hPa 404.010 MHz Type=DFM17 ser=22037103 Radiosonde
K4KDR-12D220371032022-12-07 13:37:3437.0386-78.26731067817751Clb=-9.2m/s t=-66.9C h=-1.0% p=-1.0hPa 404.010 MHz Type=DFM17 ser=22037103 Radiosonde
W4DEX-14D220371032022-12-07 13:37:3137.0386-78.26761106517769Clb=-8.9m/s Type=DFM17 ser=[BC]22037103 Details on http://radiosondy.info
W4DEX-14D220371032022-12-07 13:37:1637.04-78.2699986517909Clb=-9.2m/s Type=DFM17 ser=[BC]22037103 Details on http://radiosondy.info
KG4IFE-1D220371032022-12-07 13:37:0437.041-78.2723956118030Clb=-9.2m/s t=-68.0C h=-1.0% p=-1.0hPa 404.010 MHz Type=DFM17 ser=22037103 Radiosonde
W4DEX-14D220371032022-12-07 13:37:0137.0411-78.27251007018048Clb=-9.2m/s Type=DFM17 ser=[BC]22037103 Details on http://radiosondy.info
W4DEX-14D220371032022-12-07 13:36:4637.0423-78.2752977018190Clb=-9.3m/s Type=DFM17 ser=[BC]22037103 Details on http://radiosondy.info
W4DEX-14D220371032022-12-07 13:36:3237.0434-78.2782816318335Clb=-9.0m/s Type=DFM17 ser=[BC]22037103 Details on http://radiosondy.info
W4DEX-14D220371032022-12-07 13:36:1637.0436-78.281676518480Clb=-9.9m/s Type=DFM17 ser=[BC]22037103 Details on http://radiosondy.info
KG4IFE-1D220371032022-12-07 13:36:0137.0436-78.284684318630Clb=-9.9m/s t=-69.3C h=-1.0% p=-1.0hPa 404.010 MHz Type=DFM17 ser=22037103 Radiosonde
W4DEX-14D220371032022-12-07 13:35:4637.0437-78.28741119118782Clb=-10.3m/s Type=DFM17 ser=[BC]22037103 Details on http://radiosondy.info
K4KDR-12D220371032022-12-07 13:35:3137.0444-78.29171317218941Clb=-10.1m/s t=-66.3C h=-1.0% p=-1.0hPa 404.010 MHz Type=DFM17 ser=22037103 Radiosonde
KG4IFE-1D220371032022-12-07 13:35:3037.0445-78.29191326318951Clb=-10.1m/s t=-66.3C h=-1.0% p=-1.0hPa 404.010 MHz Type=DFM17 ser=22037103 Radiosonde
W4DEX-14D220371032022-12-07 13:35:1637.0456-78.29451385419098Clb=-10.3m/s Type=DFM17 ser=[BC]22037103 Details on http://radiosondy.info
W4DEX-14D220371032022-12-07 13:35:0137.0468-78.29621194419257Clb=-10.7m/s Type=DFM17 ser=[BC]22037103 Details on http://radiosondy.info
KG4IFE-1D220371032022-12-07 13:34:5937.0472-78.29671436919278Clb=-10.6m/s t=-65.9C h=-1.0% p=-1.0hPa 404.010 MHz Type=DFM17 ser=22037103 Radiosonde
W4DEX-14D220371032022-12-07 13:34:4637.0478-78.2975993519420Clb=-10.9m/s Type=DFM17 ser=[BC]22037103 Details on http://radiosondy.info
W4DEX-14D220371032022-12-07 13:34:3137.0484-78.2986514319581Clb=-10.6m/s Type=DFM17 ser=[BC]22037103 Details on http://radiosondy.info
K4KDR-12D220371032022-12-07 13:34:3037.0483-78.2988645019592Clb=-10.9m/s t=-65.4C h=-1.0% p=-1.0hPa 404.010 MHz Type=DFM17 ser=22037103 Radiosonde
KG4IFE-1D220371032022-12-07 13:34:2837.0482-78.2992805919613Clb=-10.8m/s t=-65.5C h=-1.0% p=-1.0hPa 404.010 MHz Type=DFM17 ser=22037103 Radiosonde
W4DEX-14D220371032022-12-07 13:34:1637.0485-78.3003335419743Clb=-10.6m/s Type=DFM17 ser=[BC]22037103 Details on http://radiosondy.info
W4DEX-14D220371032022-12-07 13:34:0137.0485-78.30251305419907Clb=-11.0m/s Type=DFM17 ser=[BC]22037103 Details on http://radiosondy.info
KG4IFE-1D220371032022-12-07 13:33:5737.0483-78.3029595219951Clb=-10.7m/s t=-65.4C h=-1.0% p=-1.0hPa 404.010 MHz Type=DFM17 ser=22037103 Radiosonde
W4DEX-14D220371032022-12-07 13:33:4637.0485-78.30481384320071Clb=-10.7m/s Type=DFM17 ser=[BC]22037103 Details on http://radiosondy.info
W4DEX-14D220371032022-12-07 13:33:3137.0486-78.30651195220237Clb=-11.0m/s Type=DFM17 ser=[BC]22037103 Details on http://radiosondy.info
K4KDR-12D220371032022-12-07 13:33:2937.0489-78.30691423720259Clb=-11.0m/s t=-64.8C h=-1.0% p=-1.0hPa 404.010 MHz Type=DFM17 ser=22037103 Radiosonde
KG4IFE-1D220371032022-12-07 13:33:2637.049-78.307781520293Clb=-10.9m/s t=-64.5C h=-1.0% p=-1.0hPa 404.010 MHz Type=DFM17 ser=22037103 Radiosonde
W4DEX-14D220371032022-12-07 13:33:1637.0488-78.30861124320405Clb=-11.0m/s Type=DFM17 ser=[BC]22037103 Details on http://radiosondy.info
W4DEX-14D220371032022-12-07 13:33:0137.0491-78.31021223920572Clb=-11.2m/s Type=DFM17 ser=[BC]22037103 Details on http://radiosondy.info
KG4IFE-1D220371032022-12-07 13:32:5537.0497-78.31072111520640Clb=-11.5m/s t=-63.5C h=-1.0% p=-1.0hPa 404.010 MHz Type=DFM17 ser=22037103 Radiosonde
W4DEX-14D220371032022-12-07 13:32:4637.0495-78.31121114120743Clb=-11.1m/s Type=DFM17 ser=[BC]22037103 Details on http://radiosondy.info
W4DEX-14D220371032022-12-07 13:32:3137.0498-78.31261004320915Clb=-11.5m/s Type=DFM17 ser=[BC]22037103 Details on http://radiosondy.info
K4KDR-12D220371032022-12-07 13:32:2837.05-78.31331345420950Clb=-11.4m/s t=-62.3C h=-1.0% p=-1.0hPa 404.010 MHz Type=DFM17 ser=22037103 Radiosonde
KG4IFE-1D220371032022-12-07 13:32:2437.0503-78.3135357421008Clb=-12.1m/s t=-62.5C h=-1.0% p=-1.0hPa 404.010 MHz Type=DFM17 ser=22037103 Radiosonde
W4DEX-14D220371032022-12-07 13:32:1637.0499-78.3141864421092Clb=-12.1m/s Type=DFM17 ser=[BC]22037103 Details on http://radiosondy.info
W4DEX-14D220371032022-12-07 13:32:0137.05-78.3157854621270Clb=-12.2m/s Type=DFM17 ser=[BC]22037103 Details on http://radiosondy.info
KG4IFE-1D220371032022-12-07 13:31:5337.0506-78.3171751921365Clb=-12.2m/s t=-63.0C h=-1.0% p=-1.0hPa 404.010 MHz Type=DFM17 ser=22037103 Radiosonde
W4DEX-14D220371032022-12-07 13:31:4637.0504-78.3174864321451Clb=-12.2m/s Type=DFM17 ser=[BC]22037103 Details on http://radiosondy.info
W4DEX-14D220371032022-12-07 13:31:3137.0508-78.3185694121637Clb=-12.2m/s Type=DFM17 ser=[BC]22037103 Details on http://radiosondy.info
K4KDR-12D220371032022-12-07 13:31:2737.0507-78.31941225221687Clb=-13.4m/s t=-62.3C h=-1.0% p=-1.0hPa 404.010 MHz Type=DFM17 ser=22037103 Radiosonde
KG4IFE-1D220371032022-12-07 13:31:2237.051-78.3196294921751Clb=-12.6m/s t=-62.4C h=-1.0% p=-1.0hPa 404.010 MHz Type=DFM17 ser=22037103 Radiosonde
W4DEX-14D220371032022-12-07 13:31:1637.0507-78.3197694121829Clb=-12.8m/s Type=DFM17 ser=[BC]22037103 Details on http://radiosondy.info
W4DEX-14D220371032022-12-07 13:31:0137.0505-78.3207634322029Clb=-13.9m/s Type=DFM17 ser=[BC]22037103 Details on http://radiosondy.info
KG4IFE-1D220371032022-12-07 13:30:5137.0506-78.32113244322164Clb=-13.2m/s t=-62.1C h=-1.0% p=-1.0hPa 404.010 MHz Type=DFM17 ser=22037103 Radiosonde
W4DEX-14D220371032022-12-07 13:30:4637.0501-78.3211514322231Clb=-13.2m/s Type=DFM17 ser=[BC]22037103 Details on http://radiosondy.info
W4DEX-14D220371032022-12-07 13:30:3137.0493-78.3217544422435Clb=-13.1m/s Type=DFM17 ser=[BC]22037103 Details on http://radiosondy.info
K4KDR-12D220371032022-12-07 13:30:2637.0492-78.32241581522503Clb=-13.6m/s t=-63.3C h=-1.0% p=-1.0hPa 404.010 MHz Type=DFM17 ser=22037103 Radiosonde
KG4IFE-1D220371032022-12-07 13:30:2037.0489-78.322235922586Clb=-14.2m/s t=-63.7C h=-1.0% p=-1.0hPa 404.010 MHz Type=DFM17 ser=22037103 Radiosonde
W4DEX-14D220371032022-12-07 13:30:1637.0484-78.3224484422641Clb=-13.1m/s Type=DFM17 ser=[BC]22037103 Details on http://radiosondy.info
W4DEX-14D220371032022-12-07 13:30:0137.0479-78.3239675622842Clb=-13.6m/s Type=DFM17 ser=[BC]22037103 Details on http://radiosondy.info
KG4IFE-1D220371032022-12-07 13:29:4937.0476-78.3258588323022Clb=-13.8m/s t=-59.6C h=-1.0% p=-1.0hPa 404.010 MHz Type=DFM17 ser=22037103 Radiosonde
W4DEX-14D220371032022-12-07 13:29:4637.0475-78.326715723050Clb=-13.9m/s Type=DFM17 ser=[BC]22037103 Details on http://radiosondy.info
W4DEX-14D220371032022-12-07 13:29:3137.0472-78.3282865723263Clb=-14.1m/s Type=DFM17 ser=[BC]22037103 Details on http://radiosondy.info
K4KDR-12D220371032022-12-07 13:29:2537.0477-78.3293168923351Clb=-14.4m/s t=-60.6C h=-1.0% p=-1.0hPa 404.010 MHz Type=DFM17 ser=22037103 Radiosonde
KG4IFE-1D220371032022-12-07 13:29:1837.0472-78.3301768323454Clb=-14.3m/s t=-60.0C h=-1.0% p=-1.0hPa 404.010 MHz Type=DFM17 ser=22037103 Radiosonde
W4DEX-14D220371032022-12-07 13:29:1637.0471-78.3303916523483Clb=-14.6m/s Type=DFM17 ser=[BC]22037103 Details on http://radiosondy.info
W4DEX-14D220371032022-12-07 13:29:0137.0469-78.3329926923710Clb=-14.7m/s Type=DFM17 ser=[BC]22037103 Details on http://radiosondy.info
KG4IFE-1D220371032022-12-07 13:28:4637.0471-78.3361278323947Clb=-15.9m/s t=-56.4C h=-1.0% p=-1.0hPa 404.010 MHz Type=DFM17 ser=22037103 Radiosonde
W4DEX-14D220371032022-12-07 13:28:3137.0472-78.33861237824193Clb=-16.8m/s Type=DFM17 ser=[BC]22037103 Details on http://radiosondy.info
K4KDR-12D220371032022-12-07 13:28:2437.0472-78.3397679424310Clb=-17.1m/s t=-57.0C h=-1.0% p=-1.0hPa 404.010 MHz Type=DFM17 ser=22037103 Radiosonde
W4DEX-14D220371032022-12-07 13:28:1637.0475-78.34181337224447Clb=-17.4m/s Type=DFM17 ser=[BC]22037103 Details on http://radiosondy.info
KG4IFE-1D220371032022-12-07 13:28:1537.0476-78.3421213124464Clb=-17.8m/s t=-57.0C h=-1.0% p=-1.0hPa 404.010 MHz Type=DFM17 ser=22037103 Radiosonde
W4DEX-14D220371032022-12-07 13:28:0137.0479-78.34471375924715Clb=-18.1m/s Type=DFM17 ser=[BC]22037103 Details on http://radiosondy.info
W4DEX-14D220371032022-12-07 13:27:4637.0476-78.3473455424988Clb=-19.0m/s Type=DFM17 ser=[BC]22037103 Details on http://radiosondy.info
KG4IFE-1D220371032022-12-07 13:27:4437.0472-78.3473547625044Clb=-17.7m/s t=-54.5C h=-1.0% p=-1.0hPa 404.010 MHz Type=DFM17 ser=22037103 Radiosonde
W4DEX-14D220371032022-12-07 13:27:3237.0473-78.3488297025269Clb=-19.1m/s Type=DFM17 ser=[BC]22037103 Details on http://radiosondy.info
K4KDR-12D220371032022-12-07 13:27:2337.047-78.35081223925419Clb=-19.4m/s t=-53.7C h=-1.0% p=-1.0hPa 404.010 MHz Type=DFM17 ser=22037103 Radiosonde
W4DEX-14D220371032022-12-07 13:27:1637.0465-78.3515517825553Clb=-19.1m/s Type=DFM17 ser=[BC]22037103 Details on http://radiosondy.info
KG4IFE-1D220371032022-12-07 13:27:1337.0462-78.35289710025609Clb=-18.7m/s t=-53.9C h=-1.0% p=-1.0hPa 404.010 MHz Type=DFM17 ser=22037103 Radiosonde
W4DEX-14D220371032022-12-07 13:27:0137.0458-78.3547807425841Clb=-18.7m/s Type=DFM17 ser=[BC]22037103 Details on http://radiosondy.info
W4DEX-14D220371032022-12-07 13:26:4637.0462-78.35761126726132Clb=-20.6m/s Type=DFM17 ser=[BC]22037103 Details on http://radiosondy.info
KG4IFE-1D220371032022-12-07 13:26:4237.0467-78.35831611126214Clb=-19.7m/s t=-52.0C h=-1.0% p=-1.0hPa 404.010 MHz Type=DFM17 ser=22037103 Radiosonde
W4DEX-14D220371032022-12-07 13:26:3137.0464-78.361385926436Clb=-20.4m/s Type=DFM17 ser=[BC]22037103 Details on http://radiosondy.info
K4KDR-12D220371032022-12-07 13:26:2237.0458-78.3608898526622Clb=-19.7m/s t=-50.9C h=-1.0% p=-1.0hPa 404.010 MHz Type=DFM17 ser=22037103 Radiosonde
W4DEX-14D220371032022-12-07 13:26:1637.0463-78.36151955026745Clb=-21.1m/s Type=DFM17 ser=[BC]22037103 Details on http://radiosondy.info
KG4IFE-1D220371032022-12-07 13:26:1137.046-78.3617667426848Clb=-21.2m/s t=-50.7C h=-1.0% p=-1.0hPa 404.010 MHz Type=DFM17 ser=22037103 Radiosonde
W4DEX-14D220371032022-12-07 13:26:0137.0464-78.3626115427062Clb=-21.1m/s Type=DFM17 ser=[BC]22037103 Details on http://radiosondy.info
W4DEX-14D220371032022-12-07 13:25:4637.0461-78.3638607027390Clb=-19.7m/s Type=DFM17 ser=[BC]22037103 Details on http://radiosondy.info
KG4IFE-1D220371032022-12-07 13:25:4037.0462-78.36551454327521Clb=-22.5m/s t=-51.5C h=-1.0% p=-1.0hPa 404.010 MHz Type=DFM17 ser=22037103 Radiosonde
W4DEX-14D220371032022-12-07 13:25:3137.0456-78.36661018027725Clb=-21.3m/s Type=DFM17 ser=[BC]22037103 Details on http://radiosondy.info
K4KDR-12D220371032022-12-07 13:25:2137.0458-78.36856710627955Clb=-23.9m/s t=-51.3C h=-1.0% p=-1.0hPa 404.010 MHz Type=DFM17 ser=22037103 Radiosonde
W4DEX-14D220371032022-12-07 13:25:1637.0459-78.36991338028069Clb=-21.7m/s Type=DFM17 ser=[BC]22037103 Details on http://radiosondy.info
KG4IFE-1D220371032022-12-07 13:25:0937.0464-78.37139710628256Clb=-23.6m/s t=-52.5C h=-1.0% p=-1.0hPa 404.010 MHz Type=DFM17 ser=22037103 Radiosonde
W4DEX-14D220371032022-12-07 13:25:0137.0471-78.37291197028432Clb=-25.4m/s Type=DFM17 ser=[BC]22037103 Details on http://radiosondy.info
W4DEX-14D220371032022-12-07 13:24:4637.0474-78.376789828800Clb=-24.4m/s Type=DFM17 ser=[BC]22037103 Details on http://radiosondy.info
KG4IFE-1D220371032022-12-07 13:24:3637.0476-78.3794787029051Clb=-27.0m/s t=-50.2C h=-1.0% p=-1.0hPa 404.010 MHz Type=DFM17 ser=22037103 Radiosonde
W4DEX-14D220371032022-12-07 13:24:3137.0475-78.380710810429180Clb=-26.0m/s Type=DFM17 ser=[BC]22037103 Details on http://radiosondy.info
K4KDR-12D220371032022-12-07 13:24:2037.0477-78.38418712029461Clb=-25.3m/s t=-49.4C h=-1.0% p=-1.0hPa 404.010 MHz Type=DFM17 ser=22037103 Radiosonde
W4DEX-14D220371032022-12-07 13:24:1637.0479-78.385211810229562Clb=-25.7m/s Type=DFM17 ser=[BC]22037103 Details on http://radiosondy.info
KG4IFE-1D220371032022-12-07 13:24:0537.0481-78.388911311729852Clb=-26.4m/s t=-48.0C h=-1.0% p=-1.0hPa 404.010 MHz Type=DFM17 ser=22037103 Radiosonde
W4DEX-14D220371032022-12-07 13:24:0137.0484-78.38968611329959Clb=-27.1m/s Type=DFM17 ser=[BC]22037103 Details on http://radiosondy.info
W4KZK-14D220371032022-12-07 13:23:5537.0488-78.3938969430265Clb=-29.6m/s t=-46.1C h=-1.0% p=-1.0hPa 404.010 MHz Type=DFM17 ser=22037103 Radiosonde
W4DEX-14D220371032022-12-07 13:23:4637.0487-78.39498712630376Clb=-27.6m/s Type=DFM17 ser=[BC]22037103 Details on http://radiosondy.info
KG4IFE-1D220371032022-12-07 13:23:3437.0486-78.39978213930728Clb=-28.9m/s t=-44.6C h=-1.0% p=-1.0hPa 404.010 MHz Type=DFM17 ser=22037103 Radiosonde
W4DEX-14D220371032022-12-07 13:23:3137.0486-78.40069914430815Clb=-31.0m/s Type=DFM17 ser=[BC]22037103 Details on http://radiosondy.info
K4KDR-12D220371032022-12-07 13:23:1937.0485-78.40619717231168Clb=-27.4m/s t=-43.3C h=-1.0% p=-1.0hPa 404.010 MHz Type=DFM17 ser=22037103 Radiosonde
W4DEX-14D220371032022-12-07 13:23:1637.0486-78.407110515731254Clb=-29.6m/s Type=DFM17 ser=[BC]22037103 Details on http://radiosondy.info
KG4IFE-1D220371032022-12-07 13:23:0337.0489-78.41399913331639Clb=-32.0m/s t=-43.0C h=-1.0% p=-1.0hPa 404.010 MHz Type=DFM17 ser=22037103 Radiosonde
W4DEX-14D220371032022-12-07 13:23:0137.0489-78.41439315931701Clb=-31.8m/s Type=DFM17 ser=[BC]22037103 Details on http://radiosondy.info
W4KZK-14D220371032022-12-07 13:22:4937.0487-78.42128016332127Clb=-33.8m/s t=-43.7C h=-1.0% p=-1.0hPa 404.010 MHz Type=DFM17 ser=22037103 Radiosonde
W4DEX-14D220371032022-12-07 13:22:4637.0487-78.42188016732196Clb=-34.9m/s Type=DFM17 ser=[BC]22037103 Details on http://radiosondy.info
KG4IFE-1D220371032022-12-07 13:22:3237.0476-78.438316332733Clb=-37.3m/s t=-44.2C h=-1.0% p=-1.0hPa 404.010 MHz Type=DFM17 ser=22037103 Radiosonde
W4DEX-14D220371032022-12-07 13:22:3137.0477-78.42958017432733Clb=-37.3m/s Type=DFM17 ser=[BC]22037103 Details on http://radiosondy.info
K4KDR-12D220371032022-12-07 13:22:1837.0471-78.4378017033248Clb=-45.4m/s t=-43.4C h=-1.0% p=-1.0hPa 404.010 MHz Type=DFM17 ser=22037103 Radiosonde
W4DEX-14D220371032022-12-07 13:22:1637.047-78.43758118033330Clb=-37.3m/s Type=DFM17 ser=[BC]22037103 Details on http://radiosondy.info
W4DEX-14D220371032022-12-07 13:22:0137.0452-78.44556619833783Clb=-37.8m/s Type=DFM17 ser=[BC]22037103 Details on http://radiosondy.info
W4DEX-14D220371032022-12-07 13:21:4637.0438-78.45478824834550Clb=-50.4m/s Type=DFM17 ser=[BC]22037103 Details on http://radiosondy.info
W4KZK-14D220371032022-12-07 13:21:4337.0436-78.45788424434598Clb=-45.8m/s t=-41.5C h=-1.0% p=-1.0hPa 404.010 MHz Type=DFM17 ser=22037103 Radiosonde
KG4IFE-1D220371032022-12-07 13:21:3037.0424-78.46848225734860Clb=5.4m/s t=-40.3C h=-1.0% p=-1.0hPa 404.010 MHz Type=DFM17 ser=22037103 Radiosonde
K4KDR-12D220371032022-12-07 13:21:1737.041-78.4787825934783Clb=6.2m/s t=-40.1C h=-1.0% p=-1.0hPa 404.010 MHz Type=DFM17 ser=22037103 Radiosonde
W4DEX-14D220371032022-12-07 13:21:1537.041-78.4787924334777Clb=5.5m/s Type=DFM17 ser=[BC]22037103 Details on http://radiosondy.info
W4KZK-14D220371032022-12-07 13:21:1037.0402-78.48338422434743Clb=5.5m/s t=-40.3C h=-1.0% p=-1.0hPa 404.010 MHz Type=DFM17 ser=22037103 Radiosonde
W4DEX-14D220371032022-12-07 13:21:0037.0394-78.48917623234693Clb=4.6m/s Type=DFM17 ser=[BC]22037103 Details on http://radiosondy.info
KG4IFE-1D220371032022-12-07 13:20:5937.0392-78.49057723734688Clb=5.1m/s t=-41.2C h=-1.0% p=-1.0hPa 404.010 MHz Type=DFM17 ser=22037103 Radiosonde
W4DEX-14D220371032022-12-07 13:20:4537.0377-78.49967822834610Clb=5.8m/s Type=DFM17 ser=[BC]22037103 Details on http://radiosondy.info
W4KZK-14D220371032022-12-07 13:20:3837.0367-78.50597420934566Clb=5.6m/s t=-41.3C h=-1.0% p=-1.0hPa 404.010 MHz Type=DFM17 ser=22037103 Radiosonde
W4DEX-14D220371032022-12-07 13:20:3037.0359-78.50997622034528Clb=5.4m/s Type=DFM17 ser=[BC]22037103 Details on http://radiosondy.info
KG4IFE-1D220371032022-12-07 13:20:2837.0352-78.51347622434506Clb=5.3m/s t=-41.7C h=-1.0% p=-1.0hPa 404.010 MHz Type=DFM17 ser=22037103 Radiosonde
K4KDR-12D220371032022-12-07 13:20:1637.0338-78.52057122434444Clb=4.8m/s t=-41.6C h=-1.0% p=-1.0hPa 404.010 MHz Type=DFM17 ser=22037103 Radiosonde
W4DEX-14D220371032022-12-07 13:20:1537.034-78.51987121334444Clb=4.7m/s Type=DFM17 ser=[BC]22037103 Details on http://radiosondy.info
W4KZK-14D220371032022-12-07 13:20:0537.0327-78.52767419834382Clb=5.6m/s t=-41.3C h=-1.0% p=-1.0hPa 404.010 MHz Type=DFM17 ser=22037103 Radiosonde
W4DEX-14D220371032022-12-07 13:20:0137.0322-78.52947620734361Clb=5.4m/s Type=DFM17 ser=[BC]22037103 Details on http://radiosondy.info
KG4IFE-1D220371032022-12-07 13:19:5637.0318-78.53288221134339Clb=5.2m/s t=-40.8C h=-1.0% p=-1.0hPa 404.010 MHz Type=DFM17 ser=22037103 Radiosonde
W4DEX-14D220371032022-12-07 13:19:4537.0308-78.53897720434280Clb=5.1m/s Type=DFM17 ser=[BC]22037103 Details on http://radiosondy.info
W4DEX-14D220371032022-12-07 13:19:3037.0295-78.54828119834197Clb=5.1m/s Type=DFM17 ser=[BC]22037103 Details on http://radiosondy.info
KG4IFE-1D220371032022-12-07 13:19:2537.0292-78.55158418034177Clb=5.9m/s t=-41.6C h=-1.0% p=-1.0hPa 404.010 MHz Type=DFM17 ser=22037103 Radiosonde
W4DEX-14D220371032022-12-07 13:19:1537.0283-78.55738320234117Clb=4.9m/s Type=DFM17 ser=[BC]22037103 Details on http://radiosondy.info
W4DEX-14D220371032022-12-07 13:19:0037.0269-78.56668420634035Clb=5.8m/s Type=DFM17 ser=[BC]22037103 Details on http://radiosondy.info
W4KZK-14D220371032022-12-07 13:18:5837.0266-78.56947619434014Clb=5.3m/s t=-41.0C h=-1.0% p=-1.0hPa 404.010 MHz Type=DFM17 ser=22037103 Radiosonde
KG4IFE-1D220371032022-12-07 13:18:5437.0263-78.57077421534003Clb=6.0m/s t=-41.2C h=-1.0% p=-1.0hPa 404.010 MHz Type=DFM17 ser=22037103 Radiosonde
W4DEX-14D220371032022-12-07 13:18:4537.0255-78.57598420233954Clb=4.9m/s Type=DFM17 ser=[BC]22037103 Details on http://radiosondy.info
W4DEX-14D220371032022-12-07 13:18:3037.0242-78.58518420033872Clb=5.5m/s Type=DFM17 ser=[BC]22037103 Details on http://radiosondy.info
W4KZK-14D220371032022-12-07 13:18:2637.0233-78.598220733834Clb=6.0m/s t=-42.0C h=-1.0% p=-1.0hPa 404.010 MHz Type=DFM17 ser=22037103 Radiosonde
KG4IFE-1D220371032022-12-07 13:18:2337.0233-78.598220733834Clb=6.0m/s t=-42.0C h=-1.0% p=-1.0hPa 404.010 MHz Type=DFM17 ser=22037103 Radiosonde
W4DEX-14D220371032022-12-07 13:18:1537.0229-78.59427219133790Clb=5.4m/s Type=DFM17 ser=[BC]22037103 Details on http://radiosondy.info
K4KDR-12D220371032022-12-07 13:18:1437.0224-78.59587219333781Clb=3.5m/s t=-42.4C h=-1.0% p=-1.0hPa 404.010 MHz Type=DFM17 ser=22037103 Radiosonde
W4DEX-14D220371032022-12-07 13:18:0137.0216-78.60287818533710Clb=4.9m/s Type=DFM17 ser=[BC]22037103 Details on http://radiosondy.info
KG4IFE-1D220371032022-12-07 13:17:5237.0209-78.60888015633661Clb=5.8m/s t=-43.8C h=-1.0% p=-1.0hPa 404.010 MHz Type=DFM17 ser=22037103 Radiosonde
W4DEX-14D220371032022-12-07 13:17:4537.0205-78.61148018733631Clb=5.8m/s Type=DFM17 ser=[BC]22037103 Details on http://radiosondy.info
W4DEX-14D220371032022-12-07 13:17:3037.0191-78.61998518133557Clb=3.2m/s Type=DFM17 ser=[BC]22037103 Details on http://radiosondy.info
KG4IFE-1D220371032022-12-07 13:17:2137.0181-78.62539018333509Clb=6.4m/s t=-45.5C h=-1.0% p=-1.0hPa 404.010 MHz Type=DFM17 ser=22037103 Radiosonde
W4KZK-14D220371032022-12-07 13:17:1937.0181-78.6278518033495Clb=4.2m/s t=-45.6C h=-1.0% p=-1.0hPa 404.010 MHz Type=DFM17 ser=22037103 Radiosonde
W4DEX-14D220371032022-12-07 13:17:1537.0179-78.62817718033477Clb=6.0m/s Type=DFM17 ser=[BC]22037103 Details on http://radiosondy.info
K4KDR-12D220371032022-12-07 13:17:1337.0174-78.63037618333464Clb=3.6m/s t=-45.5C h=-1.0% p=-1.0hPa 404.010 MHz Type=DFM17 ser=22037103 Radiosonde
W4DEX-14D220371032022-12-07 13:17:0137.0169-78.63638018533399Clb=3.7m/s Type=DFM17 ser=[BC]22037103 Details on http://radiosondy.info
KG4IFE-1D220371032022-12-07 13:16:5037.0165-78.64238821533346Clb=7.7m/s t=-45.8C h=-1.0% p=-1.0hPa 404.010 MHz Type=DFM17 ser=22037103 Radiosonde
W4DEX-14D220371032022-12-07 13:16:4537.0164-78.64498317833323Clb=8.3m/s Type=DFM17 ser=[BC]22037103 Details on http://radiosondy.info
W4DEX-14D220371032022-12-07 13:16:3037.0158-78.6537517633247Clb=-1.9m/s Type=DFM17 ser=[BC]22037103 Details on http://radiosondy.info
KG4IFE-1D220371032022-12-07 13:16:1937.0157-78.65969314133186Clb=-0.9m/s t=-47.1C h=-1.0% p=-1.0hPa 404.010 MHz Type=DFM17 ser=22037103 Radiosonde
W4DEX-14D220371032022-12-07 13:16:1537.0158-78.66139619833158Clb=6.3m/s Type=DFM17 ser=[BC]22037103 Details on http://radiosondy.info
W4KZK-14D220371032022-12-07 13:16:1337.0158-78.66468315933141Clb=10.2m/s t=-47.5C h=-1.0% p=-1.0hPa 404.010 MHz Type=DFM17 ser=22037103 Radiosonde
W4DEX-14D220371032022-12-07 13:16:0037.0158-78.67048617633078Clb=10.6m/s Type=DFM17 ser=[BC]22037103 Details on http://radiosondy.info
KG4IFE-1D220371032022-12-07 13:15:4837.0158-78.677610014333006Clb=5.5m/s t=-47.8C h=-1.0% p=-1.0hPa 404.010 MHz Type=DFM17 ser=22037103 Radiosonde
W4DEX-14D220371032022-12-07 13:15:4537.016-78.67859319332997Clb=7.2m/s Type=DFM17 ser=[BC]22037103 Details on http://radiosondy.info
W4KZK-14D220371032022-12-07 13:15:3937.0155-78.68298715932958Clb=10.0m/s t=-47.7C h=-1.0% p=-1.0hPa 404.010 MHz Type=DFM17 ser=22037103 Radiosonde
W4DEX-14D220371032022-12-07 13:15:3037.0155-78.68757717832906Clb=2.0m/s Type=DFM17 ser=[BC]22037103 Details on http://radiosondy.info
KG4IFE-1D220371032022-12-07 13:15:1737.0149-78.69519415632826Clb=11.3m/s t=-48.5C h=-1.0% p=-1.0hPa 404.010 MHz Type=DFM17 ser=22037103 Radiosonde
W4DEX-14D220371032022-12-07 13:15:1537.015-78.695610218032812Clb=1.3m/s Type=DFM17 ser=[BC]22037103 Details on http://radiosondy.info
W4KZK-14D220371032022-12-07 13:15:0637.0148-78.70289217832750Clb=3.0m/s t=-48.2C h=-1.0% p=-1.0hPa 404.010 MHz Type=DFM17 ser=22037103 Radiosonde
W4DEX-14D220371032022-12-07 13:15:0037.0148-78.7047418532722Clb=7.9m/s Type=DFM17 ser=[BC]22037103 Details on http://radiosondy.info
KG4IFE-1D220371032022-12-07 13:14:4637.0139-78.71248517432647Clb=7.8m/s t=-48.2C h=-1.0% p=-1.0hPa 404.010 MHz Type=DFM17 ser=22037103 Radiosonde
W4DEX-14D220371032022-12-07 13:14:4537.0139-78.71249417832637Clb=11.0m/s Type=DFM17 ser=[BC]22037103 Details on http://radiosondy.info
W4KZK-14D220371032022-12-07 13:14:3337.0136-78.719510117032562Clb=7.8m/s t=-48.2C h=-1.0% p=-1.0hPa 404.010 MHz Type=DFM17 ser=22037103 Radiosonde
W4DEX-14D220371032022-12-07 13:14:3037.0137-78.72058718132553Clb=6.3m/s Type=DFM17 ser=[BC]22037103 Details on http://radiosondy.info
W4DEX-14D220371032022-12-07 13:14:1537.0129-78.72887617832465Clb=-0.8m/s Type=DFM17 ser=[BC]22037103 Details on http://radiosondy.info
W4KZK-14D220371032022-12-07 13:14:0037.0123-78.737310117432373Clb=4.8m/s t=-49.4C h=-1.0% p=-1.0hPa 404.010 MHz Type=DFM17 ser=22037103 Radiosonde
KG4IFE-1D220371032022-12-07 13:13:5237.0117-78.74637416532277Clb=-0.8m/s t=-48.8C h=-1.0% p=-1.0hPa 404.010 MHz Type=DFM17 ser=22037103 Radiosonde
KG4IFE-1D220371032022-12-07 13:13:5137.0109-78.76277813532087Clb=0.9m/s t=-48.7C h=-1.0% p=-1.0hPa 404.010 MHz Type=DFM17 ser=22037103 Radiosonde
KG4IFE-1D220371032022-12-07 13:13:5037.0107-78.778610212831895Clb=5.3m/s t=-49.3C h=-1.0% p=-1.0hPa 404.010 MHz Type=DFM17 ser=22037103 Radiosonde
W4DEX-14D220371032022-12-07 13:13:4537.0118-78.79228516331719Clb=8.3m/s Type=DFM17 ser=[BC]22037103 Details on http://radiosondy.info
KG4IFE-1D220371032022-12-07 13:13:4337.0118-78.793910214331710Clb=0.9m/s t=-48.8C h=-1.0% p=-1.0hPa 404.010 MHz Type=DFM17 ser=22037103 Radiosonde
W4DEX-14D220371032022-12-07 13:13:3337.0122-78.799610517631632Clb=7.5m/s Type=DFM17 ser=[BC]22037103 Details on http://radiosondy.info
W4DEX-14D220371032022-12-07 13:13:2037.0127-78.80788815931542Clb=10.7m/s Type=DFM17 ser=[BC]22037103 Details on http://radiosondy.info
KG4IFE-1D220371032022-12-07 13:13:1737.0127-78.80999914331516Clb=1.8m/s t=-49.3C h=-1.0% p=-1.0hPa 404.010 MHz Type=DFM17 ser=22037103 Radiosonde
W4DEX-14D220371032022-12-07 13:13:0837.013-78.815110316731447Clb=1.1m/s Type=DFM17 ser=[BC]22037103 Details on http://radiosondy.info
W4KZK-14D220371032022-12-07 13:12:5837.0133-78.82228719431364Clb=8.7m/s t=-49.1C h=-1.0% p=-1.0hPa 404.010 MHz Type=DFM17 ser=22037103 Radiosonde
W4DEX-14D220371032022-12-07 13:12:5737.0133-78.82288316131356Clb=0.0m/s Type=DFM17 ser=[BC]22037103 Details on http://radiosondy.info
KG4IFE-1D220371032022-12-07 13:12:5337.0132-78.825510313031322Clb=0.9m/s t=-49.2C h=-1.0% p=-1.0hPa 404.010 MHz Type=DFM17 ser=22037103 Radiosonde
W4DEX-14D220371032022-12-07 13:12:4537.013-78.829910615231262Clb=2.5m/s Type=DFM17 ser=[BC]22037103 Details on http://radiosondy.info
W4DEX-14D220371032022-12-07 13:12:3337.013-78.83687713531176Clb=5.1m/s Type=DFM17 ser=[BC]22037103 Details on http://radiosondy.info
W4KZK-14D220371032022-12-07 13:12:3237.0127-78.83766512831173Clb=0.6m/s t=-49.4C h=-1.0% p=-1.0hPa 404.010 MHz Type=DFM17 ser=22037103 Radiosonde
KG4IFE-1D220371032022-12-07 13:12:2737.0128-78.839510216731142Clb=2.1m/s t=-49.5C h=-1.0% p=-1.0hPa 404.010 MHz Type=DFM17 ser=22037103 Radiosonde
W4DEX-14D220371032022-12-07 13:12:1937.0126-78.842710614431092Clb=7.9m/s Type=DFM17 ser=[BC]22037103 Details on http://radiosondy.info
W4DEX-14D220371032022-12-07 13:12:0737.0128-78.84937613031007Clb=5.2m/s Type=DFM17 ser=[BC]22037103 Details on http://radiosondy.info
W4KZK-14D220371032022-12-07 13:12:0437.0129-78.85110915630984Clb=8.0m/s t=-49.6C h=-1.0% p=-1.0hPa 404.010 MHz Type=DFM17 ser=22037103 Radiosonde
KG4IFE-1D220371032022-12-07 13:12:0237.013-78.8541849630944Clb=2.6m/s t=-49.9C h=-1.0% p=-1.0hPa 404.010 MHz Type=DFM17 ser=22037103 Radiosonde
W4DEX-14D220371032022-12-07 13:11:5537.0132-78.855211014830918Clb=8.3m/s Type=DFM17 ser=[BC]22037103 Details on http://radiosondy.info
W4DEX-14D220371032022-12-07 13:11:4337.0137-78.8628513330827Clb=7.0m/s Type=DFM17 ser=[BC]22037103 Details on http://radiosondy.info
W4KZK-14D220371032022-12-07 13:11:3737.0141-78.865210318030794Clb=0.0m/s t=-49.4C h=-1.0% p=-1.0hPa 404.010 MHz Type=DFM17 ser=22037103 Radiosonde
KG4IFE-1D220371032022-12-07 13:11:3637.0139-78.8689611330757Clb=5.4m/s t=-49.6C h=-1.0% p=-1.0hPa 404.010 MHz Type=DFM17 ser=22037103 Radiosonde
W4DEX-14D220371032022-12-07 13:11:2937.0139-78.8689713130751Clb=6.3m/s Type=DFM17 ser=[BC]22037103 Details on http://radiosondy.info
W4DEX-14D220371032022-12-07 13:11:1637.0144-78.8748911530673Clb=4.4m/s Type=DFM17 ser=[BC]22037103 Details on http://radiosondy.info
W4KZK-14D220371032022-12-07 13:11:0737.0144-78.8788011330607Clb=8.2m/s t=-50.1C h=-1.0% p=-1.0hPa 404.010 MHz Type=DFM17 ser=22037103 Radiosonde
W4DEX-14D220371032022-12-07 13:11:0237.014-78.87919312630581Clb=8.3m/s Type=DFM17 ser=[BC]22037103 Details on http://radiosondy.info
W4DEX-14D220371032022-12-07 13:10:4937.0142-78.8858612030497Clb=8.2m/s Type=DFM17 ser=[BC]22037103 Details on http://radiosondy.info
KG4IFE-1D220371032022-12-07 13:10:4137.014-78.89017110630422Clb=0.9m/s t=-50.9C h=-1.0% p=-1.0hPa 404.010 MHz Type=DFM17 ser=22037103 Radiosonde
W4KZK-14D220371032022-12-07 13:10:3837.0139-78.89058111330422Clb=0.8m/s t=-51.2C h=-1.0% p=-1.0hPa 404.010 MHz Type=DFM17 ser=22037103 Radiosonde
W4DEX-14D220371032022-12-07 13:10:3637.0139-78.89048813130418Clb=7.1m/s Type=DFM17 ser=[BC]22037103 Details on http://radiosondy.info
W4DEX-14D220371032022-12-07 13:10:2237.0145-78.89659812430335Clb=4.9m/s Type=DFM17 ser=[BC]22037103 Details on http://radiosondy.info
KG4IFE-1D220371032022-12-07 13:10:1337.0149-78.90119111330277Clb=10.2m/s t=-51.3C h=-1.0% p=-1.0hPa 404.010 MHz Type=DFM17 ser=22037103 Radiosonde
W4DEX-14D220371032022-12-07 13:10:0937.0147-78.90219212030258Clb=4.3m/s Type=DFM17 ser=[BC]22037103 Details on http://radiosondy.info
W4KZK-14D220371032022-12-07 13:10:0737.0147-78.90289612230251Clb=9.4m/s t=-51.4C h=-1.0% p=-1.0hPa 404.010 MHz Type=DFM17 ser=22037103 Radiosonde
W4DEX-14D220371032022-12-07 13:09:5137.0154-78.907410010930172Clb=8.2m/s Type=DFM17 ser=[BC]22037103 Details on http://radiosondy.info
KG4IFE-1D220371032022-12-07 13:09:3937.0158-78.9117799430115Clb=8.9m/s t=-51.8C h=-1.0% p=-1.0hPa 404.010 MHz Type=DFM17 ser=22037103 Radiosonde
W4DEX-14D220371032022-12-07 13:09:3637.0156-78.91239210930104Clb=4.1m/s Type=DFM17 ser=[BC]22037103 Details on http://radiosondy.info
W4KZK-14D220371032022-12-07 13:09:3137.0161-78.91479210930071Clb=6.8m/s t=-51.6C h=-1.0% p=-1.0hPa 404.010 MHz Type=DFM17 ser=22037103 Radiosonde
W4DEX-14D220371032022-12-07 13:09:1937.0161-78.91729512030025Clb=3.2m/s Type=DFM17 ser=[BC]22037103 Details on http://radiosondy.info
KG4IFE-1D220371032022-12-07 13:09:0637.0162-78.92267611129955Clb=0.9m/s t=-52.5C h=-1.0% p=-1.0hPa 404.010 MHz Type=DFM17 ser=22037103 Radiosonde
W4DEX-14D220371032022-12-07 13:09:0337.0162-78.92269611529953Clb=3.7m/s Type=DFM17 ser=[BC]22037103 Details on http://radiosondy.info
W4KZK-14D220371032022-12-07 13:08:5637.0165-78.9258639829907Clb=7.7m/s t=-53.0C h=-1.0% p=-1.0hPa 404.010 MHz Type=DFM17 ser=22037103 Radiosonde
W4DEX-14D220371032022-12-07 13:08:4837.0168-78.927711310629872Clb=3.2m/s Type=DFM17 ser=[BC]22037103 Details on http://radiosondy.info
KG4IFE-1D220371032022-12-07 13:08:3337.0168-78.9326838929789Clb=3.4m/s t=-53.0C h=-1.0% p=-1.0hPa 404.010 MHz Type=DFM17 ser=22037103 Radiosonde
W4DEX-14D220371032022-12-07 13:08:3237.0169-78.93246910229789Clb=3.4m/s Type=DFM17 ser=[BC]22037103 Details on http://radiosondy.info
W4KZK-14D220371032022-12-07 13:08:2137.0172-78.936611112029710Clb=7.1m/s t=-53.2C h=-1.0% p=-1.0hPa 404.010 MHz Type=DFM17 ser=22037103 Radiosonde
W4DEX-14D220371032022-12-07 13:08:1637.0173-78.936911510429703Clb=2.1m/s Type=DFM17 ser=[BC]22037103 Details on http://radiosondy.info
W4DEX-14D220371032022-12-07 13:08:0037.0173-78.9416679429618Clb=2.7m/s Type=DFM17 ser=[BC]22037103 Details on http://radiosondy.info
KG4IFE-1D220371032022-12-07 13:07:5937.0172-78.9422909129613Clb=6.0m/s t=-53.0C h=-1.0% p=-1.0hPa 404.010 MHz Type=DFM17 ser=22037103 Radiosonde
W4DEX-14D220371032022-12-07 13:07:4537.0173-78.94581129129531Clb=3.6m/s Type=DFM17 ser=[BC]22037103 Details on http://radiosondy.info
W4DEX-14D220371032022-12-07 13:07:2637.0172-78.9498759629447Clb=4.1m/s Type=DFM17 ser=[BC]22037103 Details on http://radiosondy.info
KG4IFE-1D220371032022-12-07 13:07:2337.0172-78.950710510729431Clb=10.1m/s t=-53.3C h=-1.0% p=-1.0hPa 404.010 MHz Type=DFM17 ser=22037103 Radiosonde
W4DEX-14D220371032022-12-07 13:07:0437.0176-78.95421089829359Clb=7.5m/s Type=DFM17 ser=[BC]22037103 Details on http://radiosondy.info
W4KZK-14D220371032022-12-07 13:07:0237.0177-78.955758729344Clb=6.3m/s t=-53.6C h=-1.0% p=-1.0hPa 404.010 MHz Type=DFM17 ser=22037103 Radiosonde
W4DEX-14D220371032022-12-07 13:06:4737.018-78.95868910629273Clb=6.8m/s Type=DFM17 ser=[BC]22037103 Details on http://radiosondy.info
KG4IFE-1D220371032022-12-07 13:06:4337.0183-78.959911611729252Clb=2.9m/s t=-53.2C h=-1.0% p=-1.0hPa 404.010 MHz Type=DFM17 ser=22037103 Radiosonde
W4DEX-14D220371032022-12-07 13:06:2837.019-78.96331119429183Clb=9.4m/s Type=DFM17 ser=[BC]22037103 Details on http://radiosondy.info
W4KZK-14D220371032022-12-07 13:06:2337.0193-78.965711611329143Clb=2.2m/s t=-53.3C h=-1.0% p=-1.0hPa 404.010 MHz Type=DFM17 ser=22037103 Radiosonde
W4DEX-14D220371032022-12-07 13:06:1037.0194-78.967610110229096Clb=5.8m/s Type=DFM17 ser=[BC]22037103 Details on http://radiosondy.info
KG4IFE-1D220371032022-12-07 13:06:0537.0198-78.9694778329068Clb=6.5m/s t=-53.1C h=-1.0% p=-1.0hPa 404.010 MHz Type=DFM17 ser=22037103 Radiosonde
W4DEX-14D220371032022-12-07 13:05:5337.02-78.9722869429012Clb=7.1m/s Type=DFM17 ser=[BC]22037103 Details on http://radiosondy.info
W4KZK-14D220371032022-12-07 13:05:4437.0201-78.9754688128955Clb=5.3m/s t=-53.4C h=-1.0% p=-1.0hPa 404.010 MHz Type=DFM17 ser=22037103 Radiosonde
W4DEX-14D220371032022-12-07 13:05:3337.0201-78.97651079828929Clb=3.2m/s Type=DFM17 ser=[BC]22037103 Details on http://radiosondy.info
KG4IFE-1D220371032022-12-07 13:05:2537.0202-78.9783618028901Clb=3.0m/s t=-53.3C h=-1.0% p=-1.0hPa 404.010 MHz Type=DFM17 ser=22037103 Radiosonde
W4DEX-14D220371032022-12-07 13:05:1337.0204-78.9808698328847Clb=1.4m/s Type=DFM17 ser=[BC]22037103 Details on http://radiosondy.info
W4KZK-14D220371032022-12-07 13:04:5637.0202-78.9839815228790Clb=2.9m/s t=-53.4C h=-1.0% p=-1.0hPa 404.010 MHz Type=DFM17 ser=22037103 Radiosonde
W4DEX-14D220371032022-12-07 13:04:5037.0203-78.98461089628767Clb=3.0m/s Type=DFM17 ser=[BC]22037103 Details on http://radiosondy.info
KG4IFE-1D220371032022-12-07 13:04:4337.0201-78.9865915928733Clb=6.0m/s t=-53.1C h=-1.0% p=-1.0hPa 404.010 MHz Type=DFM17 ser=22037103 Radiosonde
W4DEX-14D220371032022-12-07 13:04:3237.0199-78.9888658128685Clb=6.1m/s Type=DFM17 ser=[BC]22037103 Details on http://radiosondy.info
W4KZK-14D220371032022-12-07 13:04:1537.0199-78.99241059628602Clb=5.0m/s t=-53.4C h=-1.0% p=-1.0hPa 404.010 MHz Type=DFM17 ser=22037103 Radiosonde
W4DEX-14D220371032022-12-07 13:04:1337.0199-78.99241068728597Clb=5.6m/s Type=DFM17 ser=[BC]22037103 Details on http://radiosondy.info
KG4IFE-1D220371032022-12-07 13:04:0537.0198-78.99441154628558Clb=1.6m/s t=-53.5C h=-1.0% p=-1.0hPa 404.010 MHz Type=DFM17 ser=22037103 Radiosonde
W4DEX-14D220371032022-12-07 13:03:5537.02-78.9963846328506Clb=7.1m/s Type=DFM17 ser=[BC]22037103 Details on http://radiosondy.info
W4DEX-14D220371032022-12-07 13:03:3737.0203-78.99911198128434Clb=7.0m/s Type=DFM17 ser=[BC]22037103 Details on http://radiosondy.info
W4KZK-14D220371032022-12-07 13:03:3537.0206-78.999811210928421Clb=5.3m/s t=-53.5C h=-1.0% p=-1.0hPa 404.010 MHz Type=DFM17 ser=22037103 Radiosonde
KG4IFE-1D220371032022-12-07 13:03:2737.0207-79.00121055228390Clb=4.0m/s t=-53.6C h=-1.0% p=-1.0hPa 404.010 MHz Type=DFM17 ser=22037103 Radiosonde
W4DEX-14D220371032022-12-07 13:03:1837.0214-79.0026878328349Clb=7.9m/s Type=DFM17 ser=[BC]22037103 Details on http://radiosondy.info
W4DEX-14D220371032022-12-07 13:02:5937.0223-79.00621389328261Clb=4.7m/s Type=DFM17 ser=[BC]22037103 Details on http://radiosondy.info
W4KZK-14D220371032022-12-07 13:02:5237.0229-79.007810212628230Clb=5.1m/s t=-53.7C h=-1.0% p=-1.0hPa 404.010 MHz Type=DFM17 ser=22037103 Radiosonde
KG4IFE-1D220371032022-12-07 13:02:4737.0235-79.00961119428190Clb=5.8m/s t=-54.1C h=-1.0% p=-1.0hPa 404.010 MHz Type=DFM17 ser=22037103 Radiosonde
W4DEX-14D220371032022-12-07 13:02:3937.0238-79.01021159128172Clb=2.9m/s Type=DFM17 ser=[BC]22037103 Details on http://radiosondy.info
W4DEX-14D220371032022-12-07 13:02:1837.0248-79.0139738928080Clb=5.6m/s Type=DFM17 ser=[BC]22037103 Details on http://radiosondy.info
W4KZK-14D220371032022-12-07 13:02:0737.0252-79.0162827028033Clb=8.6m/s t=-53.5C h=-1.0% p=-1.0hPa 404.010 MHz Type=DFM17 ser=22037103 Radiosonde
KG4IFE-1D220371032022-12-07 13:02:0537.0251-79.01688011528021Clb=3.0m/s t=-53.5C h=-1.0% p=-1.0hPa 404.010 MHz Type=DFM17 ser=22037103 Radiosonde
W4DEX-14D220371032022-12-07 13:01:5837.0253-79.01791317827991Clb=2.2m/s Type=DFM17 ser=[BC]22037103 Details on http://radiosondy.info
W4DEX-14D220371032022-12-07 13:01:3637.0256-79.0214758027903Clb=2.9m/s Type=DFM17 ser=[BC]22037103 Details on http://radiosondy.info
KG4IFE-1D220371032022-12-07 13:01:2137.0255-79.0243866927840Clb=5.4m/s t=-53.6C h=-1.0% p=-1.0hPa 404.010 MHz Type=DFM17 ser=22037103 Radiosonde
W4DEX-14D220371032022-12-07 13:01:1437.0257-79.02491128127820Clb=3.8m/s Type=DFM17 ser=[BC]22037103 Details on http://radiosondy.info
W4DEX-14D220371032022-12-07 13:00:4837.0259-79.0286867027737Clb=6.1m/s Type=DFM17 ser=[BC]22037103 Details on http://radiosondy.info
KG4IFE-1D220371032022-12-07 13:00:2637.0259-79.0316846127669Clb=4.9m/s t=-54.0C h=-1.0% p=-1.0hPa 404.010 MHz Type=DFM17 ser=22037103 Radiosonde
W4DEX-14D220371032022-12-07 13:00:2137.0259-79.0318706927658Clb=5.9m/s Type=DFM17 ser=[BC]22037103 Details on http://radiosondy.info
W4DEX-14D220371032022-12-07 12:59:5837.0254-79.0349787027585Clb=4.5m/s Type=DFM17 ser=[BC]22037103 Details on http://radiosondy.info
KG4IFE-1D220371032022-12-07 12:59:4537.0249-79.0382907427514Clb=5.6m/s t=-54.2C h=-1.0% p=-1.0hPa 404.010 MHz Type=DFM17 ser=22037103 Radiosonde
W4DEX-14D220371032022-12-07 12:59:4337.0249-79.038797427514Clb=5.6m/s Type=DFM17 ser=[BC]22037103 Details on http://radiosondy.info
W4KZK-14D220371032022-12-07 12:59:4137.025-79.0391816527494Clb=5.2m/s t=-54.2C h=-1.0% p=-1.0hPa 404.010 MHz Type=DFM17 ser=22037103 Radiosonde
W4DEX-14D220371032022-12-07 12:59:2837.0248-79.0413756727443Clb=6.2m/s Type=DFM17 ser=[BC]22037103 Details on http://radiosondy.info
KG4IFE-1D220371032022-12-07 12:59:1337.0244-79.0448886727369Clb=3.8m/s t=-54.5C h=-1.0% p=-1.0hPa 404.010 MHz Type=DFM17 ser=22037103 Radiosonde
W4KZK-14D220371032022-12-07 12:59:0837.0242-79.0453434127349Clb=-0.4m/s t=-54.6C h=-1.0% p=-1.0hPa 404.010 MHz Type=DFM17 ser=22037103 Radiosonde
W4DEX-14D220371032022-12-07 12:58:5837.0241-79.0465404827306Clb=2.8m/s Type=DFM17 ser=[BC]22037103 Details on http://radiosondy.info
W4DEX-14D220371032022-12-07 12:58:4337.0236-79.04841114827240Clb=1.3m/s Type=DFM17 ser=[BC]22037103 Details on http://radiosondy.info
KG4IFE-1D220371032022-12-07 12:58:4237.0237-79.0488745427236Clb=5.2m/s t=-54.4C h=-1.0% p=-1.0hPa 404.010 MHz Type=DFM17 ser=22037103 Radiosonde
W4DEX-14D220371032022-12-07 12:58:2837.0234-79.0504974827176Clb=5.4m/s Type=DFM17 ser=[BC]22037103 Details on http://radiosondy.info
W4DEX-14D220371032022-12-07 12:58:0837.0253-79.0737846326393Clb=5.5m/s Type=DFM17 ser=[BC]22037103 Details on http://radiosondy.info
KG4IFE-1D220371032022-12-07 12:58:0337.0254-79.075824826356Clb=6.1m/s t=-55.4C h=-1.0% p=-1.0hPa 404.010 MHz Type=DFM17 ser=22037103 Radiosonde
W4DEX-14D220371032022-12-07 12:57:5937.0255-79.07651246326311Clb=3.8m/s Type=DFM17 ser=[BC]22037103 Details on http://radiosondy.info
W4KZK-14D220371032022-12-07 12:57:5837.0258-79.0789905726243Clb=6.2m/s t=-55.7C h=-1.0% p=-1.0hPa 404.010 MHz Type=DFM17 ser=22037103 Radiosonde
KG4IFE-1D220371032022-12-07 12:57:5737.0261-79.08121016326170Clb=6.5m/s t=-56.2C h=-1.0% p=-1.0hPa 404.010 MHz Type=DFM17 ser=22037103 Radiosonde
W4KZK-14D220371032022-12-07 12:57:5637.027-79.0852928126058Clb=2.3m/s t=-56.8C h=-1.0% p=-1.0hPa 404.010 MHz Type=DFM17 ser=22037103 Radiosonde
W4DEX-14D220371032022-12-07 12:57:5537.0274-79.08811157425977Clb=3.4m/s Type=DFM17 ser=[BC]22037103 Details on http://radiosondy.info
W4DEX-14D220371032022-12-07 12:57:5437.0273-79.0915817425901Clb=3.7m/s Type=DFM17 ser=[BC]22037103 Details on http://radiosondy.info
KG4IFE-1D220371032022-12-07 12:57:5337.0271-79.094827625849Clb=5.7m/s t=-57.7C h=-1.0% p=-1.0hPa 404.010 MHz Type=DFM17 ser=22037103 Radiosonde
W4DEX-14D220371032022-12-07 12:57:5237.0266-79.0977895725749Clb=3.5m/s Type=DFM17 ser=[BC]22037103 Details on http://radiosondy.info
KG4IFE-1D220371032022-12-07 12:57:5137.0264-79.0999667225687Clb=4.5m/s t=-58.0C h=-1.0% p=-1.0hPa 404.010 MHz Type=DFM17 ser=22037103 Radiosonde
W4KZK-14D220371032022-12-07 12:57:5037.0261-79.1048946125558Clb=4.5m/s t=-57.7C h=-1.0% p=-1.0hPa 404.010 MHz Type=DFM17 ser=22037103 Radiosonde
W4DEX-14D220371032022-12-07 12:57:4937.0258-79.1085815425461Clb=4.9m/s Type=DFM17 ser=[BC]22037103 Details on http://radiosondy.info
W4KZK-14D220371032022-12-07 12:57:4837.0257-79.1107955925406Clb=5.8m/s t=-58.1C h=-1.0% p=-1.0hPa 404.010 MHz Type=DFM17 ser=22037103 Radiosonde
W4DEX-14D220371032022-12-07 12:57:4737.0255-79.1133693725324Clb=5.1m/s Type=DFM17 ser=[BC]22037103 Details on http://radiosondy.info
KG4IFE-1D220371032022-12-07 12:57:4637.0255-79.115754325252Clb=5.3m/s t=-58.8C h=-1.0% p=-1.0hPa 404.010 MHz Type=DFM17 ser=22037103 Radiosonde
W4KZK-14D220371032022-12-07 12:57:4537.0255-79.115754325252Clb=5.3m/s t=-58.8C h=-1.0% p=-1.0hPa 404.010 MHz Type=DFM17 ser=22037103 Radiosonde
W4DEX-14D220371032022-12-07 12:57:4437.0251-79.11761283725109Clb=4.7m/s Type=DFM17 ser=[BC]22037103 Details on http://radiosondy.info
W4KZK-14D220371032022-12-07 12:57:4337.0252-79.118725225092Clb=7.2m/s t=-58.6C h=-1.0% p=-1.0hPa 404.010 MHz Type=DFM17 ser=22037103 Radiosonde
W4DEX-14D220371032022-12-07 12:57:4037.025-79.1192764125039Clb=4.3m/s Type=DFM17 ser=[BC]22037103 Details on http://radiosondy.info
W4DEX-14D220371032022-12-07 12:57:2137.0246-79.1208724824968Clb=5.9m/s Type=DFM17 ser=[BC]22037103 Details on http://radiosondy.info
KG4IFE-1D220371032022-12-07 12:57:1637.0246-79.1213956524956Clb=3.1m/s t=-59.0C h=-1.0% p=-1.0hPa 404.010 MHz Type=DFM17 ser=22037103 Radiosonde
W4KZK-14D220371032022-12-07 12:57:0837.0244-79.1219322824932Clb=3.1m/s t=-59.2C h=-1.0% p=-1.0hPa 404.010 MHz Type=DFM17 ser=22037103 Radiosonde
W4DEX-14D220371032022-12-07 12:56:5137.0243-79.123735224894Clb=4.9m/s Type=DFM17 ser=[BC]22037103 Details on http://radiosondy.info
W4DEX-14D220371032022-12-07 12:56:2537.0238-79.12531015724818Clb=3.9m/s Type=DFM17 ser=[BC]22037103 Details on http://radiosondy.info
KG4IFE-1D220371032022-12-07 12:56:1937.0238-79.126707024802Clb=4.6m/s t=-59.6C h=-1.0% p=-1.0hPa 404.010 MHz Type=DFM17 ser=22037103 Radiosonde
W4KZK-14D220371032022-12-07 12:56:1037.0237-79.1272885424768Clb=4.6m/s t=-59.8C h=-1.0% p=-1.0hPa 404.010 MHz Type=DFM17 ser=22037103 Radiosonde
W4DEX-14D220371032022-12-07 12:55:5837.0236-79.1279785424744Clb=3.8m/s Type=DFM17 ser=[BC]22037103 Details on http://radiosondy.info
W4DEX-14D220371032022-12-07 12:55:3237.0234-79.1304876724671Clb=5.5m/s Type=DFM17 ser=[BC]22037103 Details on http://radiosondy.info
KG4IFE-1D220371032022-12-07 12:55:2537.0235-79.1316824424647Clb=4.9m/s t=-59.9C h=-1.0% p=-1.0hPa 404.010 MHz Type=DFM17 ser=22037103 Radiosonde
W4KZK-14D220371032022-12-07 12:55:1237.0234-79.1333875724606Clb=5.8m/s t=-60.0C h=-1.0% p=-1.0hPa 404.010 MHz Type=DFM17 ser=22037103 Radiosonde
W4DEX-14D220371032022-12-07 12:55:0737.0234-79.1334896924596Clb=4.1m/s Type=DFM17 ser=[BC]22037103 Details on http://radiosondy.info
W4DEX-14D220371032022-12-07 12:54:4237.0233-79.1366796924517Clb=5.7m/s Type=DFM17 ser=[BC]22037103 Details on http://radiosondy.info
KG4IFE-1D220371032022-12-07 12:54:3637.0232-79.13781015924490Clb=5.0m/s t=-59.6C h=-1.0% p=-1.0hPa 404.010 MHz Type=DFM17 ser=22037103 Radiosonde
W4DEX-14D220371032022-12-07 12:54:1837.023-79.13971046724438Clb=4.1m/s Type=DFM17 ser=[BC]22037103 Details on http://radiosondy.info
W4KZK-14D220371032022-12-07 12:54:1637.023-79.1401786724433Clb=5.2m/s t=-59.9C h=-1.0% p=-1.0hPa 404.010 MHz Type=DFM17 ser=22037103 Radiosonde
W4DEX-14D220371032022-12-07 12:53:5337.0225-79.1427786124362Clb=4.2m/s Type=DFM17 ser=[BC]22037103 Details on http://radiosondy.info
KG4IFE-1D220371032022-12-07 12:53:4337.0223-79.144707824324Clb=6.8m/s t=-59.7C h=-1.0% p=-1.0hPa 404.010 MHz Type=DFM17 ser=22037103 Radiosonde
W4DEX-14D220371032022-12-07 12:53:2837.0221-79.1454836124283Clb=5.2m/s Type=DFM17 ser=[BC]22037103 Details on http://radiosondy.info
W4KZK-14D220371032022-12-07 12:53:2137.022-79.1464806724260Clb=4.9m/s t=-59.4C h=-1.0% p=-1.0hPa 404.010 MHz Type=DFM17 ser=22037103 Radiosonde
W4DEX-14D220371032022-12-07 12:53:0137.0219-79.1482725424201Clb=7.3m/s Type=DFM17 ser=[BC]22037103 Details on http://radiosondy.info
KG4IFE-1D220371032022-12-07 12:52:4937.0218-79.1495927024161Clb=5.6m/s t=-59.3C h=-1.0% p=-1.0hPa 404.010 MHz Type=DFM17 ser=22037103 Radiosonde
W4DEX-14D220371032022-12-07 12:52:3337.0218-79.1506965924117Clb=4.6m/s Type=DFM17 ser=[BC]22037103 Details on http://radiosondy.info
W4KZK-14D220371032022-12-07 12:52:1537.0217-79.15221064624076Clb=6.1m/s t=-58.7C h=-1.0% p=-1.0hPa 404.010 MHz Type=DFM17 ser=22037103 Radiosonde
W4DEX-14D220371032022-12-07 12:51:5837.0218-79.1534885624033Clb=5.6m/s Type=DFM17 ser=[BC]22037103 Details on http://radiosondy.info
KG4IFE-1D220371032022-12-07 12:51:4037.0217-79.1553924623980Clb=4.3m/s t=-58.5C h=-1.0% p=-1.0hPa 404.010 MHz Type=DFM17 ser=22037103 Radiosonde
W4DEX-14D220371032022-12-07 12:51:2837.0216-79.1561845423955Clb=4.3m/s Type=DFM17 ser=[BC]22037103 Details on http://radiosondy.info
W4KZK-14D220371032022-12-07 12:51:1137.0214-79.1582653123889Clb=4.1m/s t=-59.3C h=-1.0% p=-1.0hPa 404.010 MHz Type=DFM17 ser=22037103 Radiosonde
W4DEX-14D220371032022-12-07 12:51:0137.0213-79.1584825623874Clb=6.0m/s Type=DFM17 ser=[BC]22037103 Details on http://radiosondy.info
KG4IFE-1D220371032022-12-07 12:50:4937.0209-79.1602806923821Clb=3.2m/s t=-59.7C h=-1.0% p=-1.0hPa 404.010 MHz Type=DFM17 ser=22037103 Radiosonde
W4DEX-14D220371032022-12-07 12:50:3737.0206-79.1608535623797Clb=4.1m/s Type=DFM17 ser=[BC]22037103 Details on http://radiosondy.info
W4KZK-14D220371032022-12-07 12:50:1437.0197-79.1629686323731Clb=3.8m/s t=-60.0C h=-1.0% p=-1.0hPa 404.010 MHz Type=DFM17 ser=22037103 Radiosonde
W4DEX-14D220371032022-12-07 12:50:1037.0197-79.1631505923722Clb=5.6m/s Type=DFM17 ser=[BC]22037103 Details on http://radiosondy.info
KG4IFE-1D220371032022-12-07 12:49:5237.0186-79.1648375723668Clb=3.9m/s t=-60.5C h=-1.0% p=-1.0hPa 404.010 MHz Type=DFM17 ser=22037103 Radiosonde
W4DEX-14D220371032022-12-07 12:49:4437.0184-79.1651765023648Clb=4.4m/s Type=DFM17 ser=[BC]22037103 Details on http://radiosondy.info
W4DEX-14D220371032022-12-07 12:49:1237.0173-79.1671454323574Clb=5.9m/s Type=DFM17 ser=[BC]22037103 Details on http://radiosondy.info
W4KZK-14D220371032022-12-07 12:49:1137.017-79.1674423123556Clb=4.0m/s t=-60.5C h=-1.0% p=-1.0hPa 404.010 MHz Type=DFM17 ser=22037103 Radiosonde
KG4IFE-1D220371032022-12-07 12:48:5237.0165-79.16833483023510Clb=4.4m/s t=-60.3C h=-1.0% p=-1.0hPa 404.010 MHz Type=DFM17 ser=22037103 Radiosonde
W4DEX-14D220371032022-12-07 12:48:4537.0163-79.1683683923497Clb=7.1m/s Type=DFM17 ser=[BC]22037103 Details on http://radiosondy.info
W4DEX-14D220371032022-12-07 12:48:1337.0157-79.1699803123418Clb=4.3m/s Type=DFM17 ser=[BC]22037103 Details on http://radiosondy.info
W4KZK-14D220371032022-12-07 12:48:0737.0155-79.1703373523398Clb=5.2m/s t=-60.1C h=-1.0% p=-1.0hPa 404.010 MHz Type=DFM17 ser=22037103 Radiosonde
KG4IFE-1D220371032022-12-07 12:47:5237.0153-79.1711654823355Clb=2.7m/s t=-60.7C h=-1.0% p=-1.0hPa 404.010 MHz Type=DFM17 ser=22037103 Radiosonde
W4DEX-14D220371032022-12-07 12:47:4737.0152-79.1712512423346Clb=5.3m/s Type=DFM17 ser=[BC]22037103 Details on http://radiosondy.info
W4DEX-14D220371032022-12-07 12:47:1437.0152-79.17211053923273Clb=2.6m/s Type=DFM17 ser=[BC]22037103 Details on http://radiosondy.info
W4KZK-14D220371032022-12-07 12:47:0037.0154-79.1728622223234Clb=5.4m/s t=-60.5C h=-1.0% p=-1.0hPa 404.010 MHz Type=DFM17 ser=22037103 Radiosonde
W4DEX-14D220371032022-12-07 12:46:4637.0155-79.17371573923189Clb=4.9m/s Type=DFM17 ser=[BC]22037103 Details on http://radiosondy.info
W4DEX-14D220371032022-12-07 12:46:1737.0158-79.1754884423113Clb=6.6m/s Type=DFM17 ser=[BC]22037103 Details on http://radiosondy.info
W4KZK-14D220371032022-12-07 12:45:5837.016-79.17691265023056Clb=4.2m/s t=-60.6C h=-1.0% p=-1.0hPa 404.010 MHz Type=DFM17 ser=22037103 Radiosonde
W4DEX-14D220371032022-12-07 12:45:5037.0162-79.1772554123039Clb=5.0m/s Type=DFM17 ser=[BC]22037103 Details on http://radiosondy.info
W4DEX-14D220371032022-12-07 12:45:2137.0159-79.179904122969Clb=4.4m/s Type=DFM17 ser=[BC]22037103 Details on http://radiosondy.info
W4KZK-14D220371032022-12-07 12:44:5837.0158-79.1808653122912Clb=5.4m/s t=-60.5C h=-1.0% p=-1.0hPa 404.010 MHz Type=DFM17 ser=22037103 Radiosonde
W4DEX-14D220371032022-12-07 12:44:5337.0158-79.1809664422901Clb=5.4m/s Type=DFM17 ser=[BC]22037103 Details on http://radiosondy.info
KG4IFE-1D220371032022-12-07 12:44:5237.0157-79.1812705922896Clb=4.8m/s t=-60.4C h=-1.0% p=-1.0hPa 404.010 MHz Type=DFM17 ser=22037103 Radiosonde
W4DEX-14D220371032022-12-07 12:44:2137.0153-79.1828763922833Clb=3.6m/s Type=DFM17 ser=[BC]22037103 Details on http://radiosondy.info
W4DEX-14D220371032022-12-07 12:44:0137.0147-79.1845654622766Clb=3.8m/s Type=DFM17 ser=[BC]22037103 Details on http://radiosondy.info
KG4IFE-1D220371032022-12-07 12:44:0037.0146-79.1849792422757Clb=4.8m/s t=-61.3C h=-1.0% p=-1.0hPa 404.010 MHz Type=DFM17 ser=22037103 Radiosonde
W4DEX-14D220371032022-12-07 12:43:4337.014-79.1864875422698Clb=4.7m/s Type=DFM17 ser=[BC]22037103 Details on http://radiosondy.info
W4DEX-14D220371032022-12-07 12:43:2437.0133-79.1886714822627Clb=5.6m/s Type=DFM17 ser=[BC]22037103 Details on http://radiosondy.info
KG4IFE-1D220371032022-12-07 12:43:2237.0133-79.18931033322612Clb=4.3m/s t=-63.1C h=-1.0% p=-1.0hPa 404.010 MHz Type=DFM17 ser=22037103 Radiosonde
W4KZK-14D220371032022-12-07 12:43:2037.0133-79.1895603722602Clb=5.6m/s t=-63.4C h=-1.0% p=-1.0hPa 404.010 MHz Type=DFM17 ser=22037103 Radiosonde
W4DEX-14D220371032022-12-07 12:43:1237.013-79.1907714322551Clb=6.1m/s Type=DFM17 ser=[BC]22037103 Details on http://radiosondy.info
W4DEX-14D220371032022-12-07 12:42:5637.0124-79.1925764622474Clb=6.7m/s Type=DFM17 ser=[BC]22037103 Details on http://radiosondy.info
KG4IFE-1D220371032022-12-07 12:42:5237.0123-79.1935533522447Clb=7.0m/s t=-65.0C h=-1.0% p=-1.0hPa 404.010 MHz Type=DFM17 ser=22037103 Radiosonde
W4KZK-14D220371032022-12-07 12:42:4737.012-79.1943974322403Clb=2.4m/s t=-65.3C h=-1.0% p=-1.0hPa 404.010 MHz Type=DFM17 ser=22037103 Radiosonde
W4DEX-14D220371032022-12-07 12:42:3537.012-79.1945844622394Clb=6.5m/s Type=DFM17 ser=[BC]22037103 Details on http://radiosondy.info
W4DEX-14D220371032022-12-07 12:42:1637.0111-79.1957273722317Clb=4.7m/s Type=DFM17 ser=[BC]22037103 Details on http://radiosondy.info
KG4IFE-1D220371032022-12-07 12:42:1037.011-79.1964474622287Clb=6.7m/s t=-64.9C h=-1.0% p=-1.0hPa 404.010 MHz Type=DFM17 ser=22037103 Radiosonde
W4KZK-14D220371032022-12-07 12:42:0337.0106-79.197944322249Clb=4.5m/s t=-64.8C h=-1.0% p=-1.0hPa 404.010 MHz Type=DFM17 ser=22037103 Radiosonde
W4DEX-14D220371032022-12-07 12:41:5837.0106-79.1972663022234Clb=5.5m/s Type=DFM17 ser=[BC]22037103 Details on http://radiosondy.info
W4DEX-14D220371032022-12-07 12:41:4337.0101-79.1983692422154Clb=6.5m/s Type=DFM17 ser=[BC]22037103 Details on http://radiosondy.info
KG4IFE-1D220371032022-12-07 12:41:3737.0099-79.1989503722118Clb=4.2m/s t=-63.8C h=-1.0% p=-1.0hPa 404.010 MHz Type=DFM17 ser=22037103 Radiosonde
W4KZK-14D220371032022-12-07 12:41:2937.0097-79.1995644622075Clb=2.7m/s t=-63.7C h=-1.0% p=-1.0hPa 404.010 MHz Type=DFM17 ser=22037103 Radiosonde
W4DEX-14D220371032022-12-07 12:41:2837.0098-79.1994653022075Clb=2.6m/s Type=DFM17 ser=[BC]22037103 Details on http://radiosondy.info
W4DEX-14D220371032022-12-07 12:41:1337.0095-79.20051053121998Clb=5.1m/s Type=DFM17 ser=[BC]22037103 Details on http://radiosondy.info
KG4IFE-1D220371032022-12-07 12:41:0637.0096-79.2011642021964Clb=4.5m/s t=-63.3C h=-1.0% p=-1.0hPa 404.010 MHz Type=DFM17 ser=22037103 Radiosonde
W4KZK-14D220371032022-12-07 12:40:5237.0322-79.29410810219059Clb=4.2m/s t=-71.8C h=-1.0% p=-1.0hPa 404.010 MHz Type=DFM17 ser=22037103 Radiosonde
W4DEX-14D220371032022-12-07 12:40:4537.0321-79.29371037819059Clb=4.1m/s Type=DFM17 ser=[BC]22037103 Details on http://radiosondy.info
KG4IFE-1D220371032022-12-07 12:40:1637.0322-79.2971874418979Clb=6.9m/s t=-71.5C h=-1.0% p=-1.0hPa 404.010 MHz Type=DFM17 ser=22037103 Radiosonde
W4DEX-14D220371032022-12-07 12:40:1437.0322-79.2971885718972Clb=7.3m/s Type=DFM17 ser=[BC]22037103 Details on http://radiosondy.info
W4DEX-14D220371032022-12-07 12:39:3537.032-79.2998655218880Clb=4.2m/s Type=DFM17 ser=[BC]22037103 Details on http://radiosondy.info
KG4IFE-1D220371032022-12-07 12:38:5637.0318-79.3023643718802Clb=5.6m/s t=-70.8C h=-1.0% p=-1.0hPa 404.010 MHz Type=DFM17 ser=22037103 Radiosonde
W4DEX-14D220371032022-12-07 12:38:2037.0315-79.304824318726Clb=4.4m/s Type=DFM17 ser=[BC]22037103 Details on http://radiosondy.info
W4KZK-14D220371032022-12-07 12:38:1437.0312-79.3044735218709Clb=6.3m/s t=-70.3C h=-1.0% p=-1.0hPa 404.010 MHz Type=DFM17 ser=22037103 Radiosonde
W4DEX-14D220371032022-12-07 12:37:4837.0309-79.30561054318648Clb=6.3m/s Type=DFM17 ser=[BC]22037103 Details on http://radiosondy.info
KG4IFE-1D220371032022-12-07 12:37:4637.031-79.306964618641Clb=1.1m/s t=-69.8C h=-1.0% p=-1.0hPa 404.010 MHz Type=DFM17 ser=22037103 Radiosonde
W4DEX-14D220371032022-12-07 12:37:1337.0308-79.3074983918568Clb=7.1m/s Type=DFM17 ser=[BC]22037103 Details on http://radiosondy.info
W4KZK-14D220371032022-12-07 12:36:5937.0309-79.3084796318524Clb=4.3m/s t=-69.2C h=-1.0% p=-1.0hPa 404.010 MHz Type=DFM17 ser=22037103 Radiosonde
W4DEX-14D220371032022-12-07 12:36:4037.0309-79.30921075218489Clb=6.2m/s Type=DFM17 ser=[BC]22037103 Details on http://radiosondy.info
KG4IFE-1D220371032022-12-07 12:36:3537.0309-79.3097835018479Clb=2.6m/s t=-69.1C h=-1.0% p=-1.0hPa 404.010 MHz Type=DFM17 ser=22037103 Radiosonde
W4DEX-14D220371032022-12-07 12:36:0137.0311-79.31151124818415Clb=4.4m/s Type=DFM17 ser=[BC]22037103 Details on http://radiosondy.info
W4KZK-14D220371032022-12-07 12:35:4237.0313-79.31291165418372Clb=4.4m/s t=-69.6C h=-1.0% p=-1.0hPa 404.010 MHz Type=DFM17 ser=22037103 Radiosonde
W4DEX-14D220371032022-12-07 12:35:3037.0315-79.31371194818343Clb=4.5m/s Type=DFM17 ser=[BC]22037103 Details on http://radiosondy.info
KG4IFE-1D220371032022-12-07 12:35:2437.0316-79.3141864618327Clb=3.1m/s t=-69.8C h=-1.0% p=-1.0hPa 404.010 MHz Type=DFM17 ser=22037103 Radiosonde
W4DEX-14D220371032022-12-07 12:34:5037.032-79.31581225018265Clb=5.1m/s Type=DFM17 ser=[BC]22037103 Details on http://radiosondy.info
W4KZK-14D220371032022-12-07 12:34:2137.0325-79.3177784418204Clb=4.0m/s t=-69.2C h=-1.0% p=-1.0hPa 404.010 MHz Type=DFM17 ser=22037103 Radiosonde
W4DEX-14D220371032022-12-07 12:34:1437.0325-79.31791115218191Clb=5.6m/s Type=DFM17 ser=[BC]22037103 Details on http://radiosondy.info
KG4IFE-1D220371032022-12-07 12:34:0737.0328-79.31861145218172Clb=4.1m/s t=-69.0C h=-1.0% p=-1.0hPa 404.010 MHz Type=DFM17 ser=22037103 Radiosonde
W4DEX-14D220371032022-12-07 12:33:3737.0333-79.32955918110Clb=4.2m/s Type=DFM17 ser=[BC]22037103 Details on http://radiosondy.info
W4DEX-14D220371032022-12-07 12:33:0537.0344-79.32241095918035Clb=6.1m/s Type=DFM17 ser=[BC]22037103 Details on http://radiosondy.info
KG4IFE-1D220371032022-12-07 12:32:5437.0347-79.32331116118013Clb=5.5m/s t=-67.8C h=-1.0% p=-1.0hPa 404.010 MHz Type=DFM17 ser=22037103 Radiosonde
W4DEX-14D220371032022-12-07 12:32:2937.0353-79.32491266917966Clb=5.9m/s Type=DFM17 ser=[BC]22037103 Details on http://radiosondy.info
W4DEX-14D220371032022-12-07 12:31:5537.0366-79.3275997017887Clb=3.9m/s Type=DFM17 ser=[BC]22037103 Details on http://radiosondy.info
KG4IFE-1D220371032022-12-07 12:31:4237.0372-79.32891146517851Clb=5.7m/s t=-66.9C h=-1.0% p=-1.0hPa 404.010 MHz Type=DFM17 ser=22037103 Radiosonde
W4DEX-14D220371032022-12-07 12:31:1737.0378-79.33041368117812Clb=6.4m/s Type=DFM17 ser=[BC]22037103 Details on http://radiosondy.info
W4DEX-14D220371032022-12-07 12:30:4137.0394-79.33361138517738Clb=5.0m/s Type=DFM17 ser=[BC]22037103 Details on http://radiosondy.info
KG4IFE-1D220371032022-12-07 12:30:2337.0403-79.33561089417695Clb=5.7m/s t=-66.8C h=-1.0% p=-1.0hPa 404.010 MHz Type=DFM17 ser=22037103 Radiosonde
W4DEX-14D220371032022-12-07 12:30:0637.0409-79.3371168917662Clb=7.9m/s Type=DFM17 ser=[BC]22037103 Details on http://radiosondy.info
W4DEX-14D220371032022-12-07 12:29:2437.0423-79.34081099317589Clb=6.2m/s Type=DFM17 ser=[BC]22037103 Details on http://radiosondy.info
KG4IFE-1D220371032022-12-07 12:29:0637.0432-79.3435989117543Clb=5.2m/s t=-67.2C h=-1.0% p=-1.0hPa 404.010 MHz Type=DFM17 ser=22037103 Radiosonde
W4KZK-14D220371032022-12-07 12:29:0437.0433-79.34431109617523Clb=7.6m/s t=-67.2C h=-1.0% p=-1.0hPa 404.010 MHz Type=DFM17 ser=22037103 Radiosonde
W4DEX-14D220371032022-12-07 12:28:5037.0435-79.344911610617503Clb=4.7m/s Type=DFM17 ser=[BC]22037103 Details on http://radiosondy.info
W4DEX-14D220371032022-12-07 12:28:1337.0447-79.349610010917428Clb=3.1m/s Type=DFM17 ser=[BC]22037103 Details on http://radiosondy.info
KG4IFE-1D220371032022-12-07 12:27:4937.0454-79.353311011317374Clb=5.2m/s t=-68.1C h=-1.0% p=-1.0hPa 404.010 MHz Type=DFM17 ser=22037103 Radiosonde
W4KZK-14D220371032022-12-07 12:27:4237.0456-79.35421009817357Clb=7.0m/s t=-68.0C h=-1.0% p=-1.0hPa 404.010 MHz Type=DFM17 ser=22037103 Radiosonde
W4DEX-14D220371032022-12-07 12:27:3537.0456-79.3546949817344Clb=6.4m/s Type=DFM17 ser=[BC]22037103 Details on http://radiosondy.info
W4DEX-14D220371032022-12-07 12:26:5537.0464-79.35911110017261Clb=5.6m/s Type=DFM17 ser=[BC]22037103 Details on http://radiosondy.info
KG4IFE-1D220371032022-12-07 12:26:3037.0471-79.36251129317198Clb=5.8m/s t=-68.3C h=-1.0% p=-1.0hPa 404.010 MHz Type=DFM17 ser=22037103 Radiosonde
W4KZK-14D220371032022-12-07 12:26:1837.0477-79.36510810017152Clb=5.8m/s t=-68.8C h=-1.0% p=-1.0hPa 404.010 MHz Type=DFM17 ser=22037103 Radiosonde
W4DEX-14D220371032022-12-07 12:25:4437.0484-79.368110611117096Clb=5.2m/s Type=DFM17 ser=[BC]22037103 Details on http://radiosondy.info
KG4IFE-1D220371032022-12-07 12:25:1537.0494-79.37351059617018Clb=4.1m/s t=-69.1C h=-1.0% p=-1.0hPa 404.010 MHz Type=DFM17 ser=22037103 Radiosonde
W4DEX-14D220371032022-12-07 12:25:0637.0493-79.373210511117018Clb=4.1m/s Type=DFM17 ser=[BC]22037103 Details on http://radiosondy.info
W4KZK-14D220371032022-12-07 12:24:5537.0496-79.374910212016995Clb=6.6m/s t=-69.1C h=-1.0% p=-1.0hPa 404.010 MHz Type=DFM17 ser=22037103 Radiosonde
W4DEX-14D220371032022-12-07 12:24:2537.0501-79.37839311316941Clb=3.2m/s Type=DFM17 ser=[BC]22037103 Details on http://radiosondy.info
KG4IFE-1D220371032022-12-07 12:24:0137.0506-79.383110210216874Clb=4.9m/s t=-69.2C h=-1.0% p=-1.0hPa 404.010 MHz Type=DFM17 ser=22037103 Radiosonde
W4DEX-14D220371032022-12-07 12:23:5937.0507-79.383510411316867Clb=1.4m/s Type=DFM17 ser=[BC]22037103 Details on http://radiosondy.info
W4KZK-14D220371032022-12-07 12:23:5337.0513-79.38759912816817Clb=4.2m/s t=-69.5C h=-1.0% p=-1.0hPa 404.010 MHz Type=DFM17 ser=22037103 Radiosonde
KG4IFE-1D220371032022-12-07 12:23:4237.0521-79.39389412216730Clb=5.3m/s t=-70.3C h=-1.0% p=-1.0hPa 404.010 MHz Type=DFM17 ser=22037103 Radiosonde
W4DEX-14D220371032022-12-07 12:23:4037.0521-79.39389511916725Clb=5.7m/s Type=DFM17 ser=[BC]22037103 Details on http://radiosondy.info
W4KZK-14D220371032022-12-07 12:23:2437.0528-79.398110712616676Clb=4.0m/s t=-70.6C h=-1.0% p=-1.0hPa 404.010 MHz Type=DFM17 ser=22037103 Radiosonde
W4DEX-14D220371032022-12-07 12:23:1637.0531-79.39929511716655Clb=4.8m/s Type=DFM17 ser=[BC]22037103 Details on http://radiosondy.info
W4DEX-14D220371032022-12-07 12:22:5837.0536-79.404610312016568Clb=3.6m/s Type=DFM17 ser=[BC]22037103 Details on http://radiosondy.info
W4KZK-14D220371032022-12-07 12:22:5137.0538-79.40989111716492Clb=8.1m/s t=-71.2C h=-1.0% p=-1.0hPa 404.010 MHz Type=DFM17 ser=22037103 Radiosonde
W4DEX-14D220371032022-12-07 12:22:4637.0536-79.41568710716403Clb=6.3m/s Type=DFM17 ser=[BC]22037103 Details on http://radiosondy.info
W4DEX-14D220371032022-12-07 12:22:3637.0533-79.42068511116327Clb=6.3m/s Type=DFM17 ser=[BC]22037103 Details on http://radiosondy.info
W4KZK-14D220371032022-12-07 12:22:3437.0532-79.4249510916283Clb=5.3m/s t=-70.3C h=-1.0% p=-1.0hPa 404.010 MHz Type=DFM17 ser=22037103 Radiosonde
W4DEX-14D220371032022-12-07 12:21:5937.0532-79.42578611316250Clb=5.6m/s Type=DFM17 ser=[BC]22037103 Details on http://radiosondy.info
W4DEX-14D220371032022-12-07 12:21:4837.1007-79.640612516912931Clb=7.3m/s Type=DFM17 ser=[BC]22037103 Details on http://radiosondy.info
W4KZK-14D220371032022-12-07 12:21:2837.1034-79.64612218112864Clb=6.7m/s t=-63.3C h=-1.0% p=-1.0hPa 404.010 MHz Type=DFM17 ser=22037103 Radiosonde
W4DEX-14D220371032022-12-07 12:21:2037.104-79.647411517812841Clb=3.7m/s Type=DFM17 ser=[BC]22037103 Details on http://radiosondy.info
KG4IFE-1D220371032022-12-07 12:21:0537.1058-79.651711618912795Clb=4.8m/s t=-64.3C h=-1.0% p=-1.0hPa 404.010 MHz Type=DFM17 ser=22037103 Radiosonde
W4DEX-14D220371032022-12-07 12:20:4737.1072-79.654711919412756Clb=5.2m/s Type=DFM17 ser=[BC]22037103 Details on http://radiosondy.info
W4KZK-14D220371032022-12-07 12:20:1637.1109-79.662512218712678Clb=6.1m/s t=-64.1C h=-1.0% p=-1.0hPa 404.010 MHz Type=DFM17 ser=22037103 Radiosonde
W4DEX-14D220371032022-12-07 12:20:1337.1109-79.662512019612672Clb=5.4m/s Type=DFM17 ser=[BC]22037103 Details on http://radiosondy.info
KG4IFE-1D220371032022-12-07 12:19:5737.1134-79.667812018712620Clb=6.4m/s t=-63.8C h=-1.0% p=-1.0hPa 404.010 MHz Type=DFM17 ser=22037103 Radiosonde
W4DEX-14D220371032022-12-07 12:19:4237.1147-79.670412319312588Clb=4.4m/s Type=DFM17 ser=[BC]22037103 Details on http://radiosondy.info
W4DEX-14D220371032022-12-07 12:19:0637.1184-79.678211920012504Clb=6.8m/s Type=DFM17 ser=[BC]22037103 Details on http://radiosondy.info
W4KZK-14D220371032022-12-07 12:19:0237.1191-79.679812019812492Clb=4.8m/s t=-63.6C h=-1.0% p=-1.0hPa 404.010 MHz Type=DFM17 ser=22037103 Radiosonde
KG4IFE-1D220371032022-12-07 12:18:4537.1212-79.68412120212453Clb=5.0m/s t=-63.4C h=-1.0% p=-1.0hPa 404.010 MHz Type=DFM17 ser=22037103 Radiosonde
W4DEX-14D220371032022-12-07 12:18:3337.1222-79.686212320212427Clb=4.2m/s Type=DFM17 ser=[BC]22037103 Details on http://radiosondy.info
W4DEX-14D220371032022-12-07 12:18:0137.1261-79.694311820612354Clb=4.7m/s Type=DFM17 ser=[BC]22037103 Details on http://radiosondy.info
W4KZK-14D220371032022-12-07 12:17:5137.1277-79.697512020712331Clb=5.2m/s t=-62.7C h=-1.0% p=-1.0hPa 404.010 MHz Type=DFM17 ser=22037103 Radiosonde
KG4IFE-1D220371032022-12-07 12:17:4137.1292-79.700911820012301Clb=4.6m/s t=-62.7C h=-1.0% p=-1.0hPa 404.010 MHz Type=DFM17 ser=22037103 Radiosonde
W4DEX-14D220371032022-12-07 12:17:3237.13-79.702612420412284Clb=4.1m/s Type=DFM17 ser=[BC]22037103 Details on http://radiosondy.info
W4DEX-14D220371032022-12-07 12:17:0237.1338-79.710811919612206Clb=5.1m/s Type=DFM17 ser=[BC]22037103 Details on http://radiosondy.info
W4KZK-14D220371032022-12-07 12:16:4837.1361-79.715811620712166Clb=4.4m/s t=-62.0C h=-1.0% p=-1.0hPa 404.010 MHz Type=DFM17 ser=22037103 Radiosonde
KG4IFE-1D220371032022-12-07 12:16:4137.1371-79.718411718712141Clb=4.8m/s t=-61.8C h=-1.0% p=-1.0hPa 404.010 MHz Type=DFM17 ser=22037103 Radiosonde
W4DEX-14D220371032022-12-07 12:16:3437.1374-79.718911919612132Clb=4.9m/s Type=DFM17 ser=[BC]22037103 Details on http://radiosondy.info
W4DEX-14D220371032022-12-07 12:16:0737.141-79.726912219312053Clb=3.8m/s Type=DFM17 ser=[BC]22037103 Details on http://radiosondy.info
W4KZK-14D220371032022-12-07 12:15:4837.1443-79.734211818711990Clb=5.4m/s t=-60.8C h=-1.0% p=-1.0hPa 404.010 MHz Type=DFM17 ser=22037103 Radiosonde
KG4IFE-1D220371032022-12-07 12:15:4537.1443-79.734211818711990Clb=5.4m/s t=-60.8C h=-1.0% p=-1.0hPa 404.010 MHz Type=DFM17 ser=22037103 Radiosonde
W4DEX-14D220371032022-12-07 12:15:4037.1446-79.734811719111979Clb=5.3m/s Type=DFM17 ser=[BC]22037103 Details on http://radiosondy.info
W4DEX-14D220371032022-12-07 12:15:1337.1481-79.742511618711897Clb=4.3m/s Type=DFM17 ser=[BC]22037103 Details on http://radiosondy.info
KG4IFE-1D220371032022-12-07 12:14:4737.1514-79.750211919111822Clb=4.5m/s t=-59.4C h=-1.0% p=-1.0hPa 404.010 MHz Type=DFM17 ser=22037103 Radiosonde
W4DEX-14D220371032022-12-07 12:14:4537.1514-79.750212018711818Clb=4.6m/s Type=DFM17 ser=[BC]22037103 Details on http://radiosondy.info
W4DEX-14D220371032022-12-07 12:14:1537.1548-79.757812218711740Clb=3.8m/s Type=DFM17 ser=[BC]22037103 Details on http://radiosondy.info
W4DEX-14D220371032022-12-07 12:13:4737.1581-79.765611618311664Clb=4.8m/s Type=DFM17 ser=[BC]22037103 Details on http://radiosondy.info
W4KZK-14D220371032022-12-07 12:13:4237.1589-79.767611917411650Clb=4.7m/s t=-58.1C h=-1.0% p=-1.0hPa 404.010 MHz Type=DFM17 ser=22037103 Radiosonde
W4DEX-14D220371032022-12-07 12:13:1537.1612-79.773212018911588Clb=5.5m/s Type=DFM17 ser=[BC]22037103 Details on http://radiosondy.info
W4DEX-14D220371032022-12-07 12:12:3937.1643-79.781112118511503Clb=3.4m/s Type=DFM17 ser=[BC]22037103 Details on http://radiosondy.info
KG4IFE-1D220371032022-12-07 12:12:3637.1647-79.782111719411498Clb=6.2m/s t=-57.1C h=-1.0% p=-1.0hPa 404.010 MHz Type=DFM17 ser=22037103 Radiosonde
W4KZK-14D220371032022-12-07 12:12:2737.166-79.785211517811462Clb=5.5m/s t=-56.8C h=-1.0% p=-1.0hPa 404.010 MHz Type=DFM17 ser=22037103 Radiosonde
W4DEX-14D220371032022-12-07 12:12:0537.1673-79.788911818711418Clb=5.4m/s Type=DFM17 ser=[BC]22037103 Details on http://radiosondy.info
W4DEX-14D220371032022-12-07 12:11:3137.1703-79.796811518911341Clb=5.2m/s Type=DFM17 ser=[BC]22037103 Details on http://radiosondy.info
KG4IFE-1D220371032022-12-07 12:11:2737.1712-79.798911518311325Clb=5.5m/s t=-55.7C h=-1.0% p=-1.0hPa 404.010 MHz Type=DFM17 ser=22037103 Radiosonde
W4KZK-14D220371032022-12-07 12:11:1537.1723-79.802211218111293Clb=3.9m/s t=-55.5C h=-1.0% p=-1.0hPa 404.010 MHz Type=DFM17 ser=22037103 Radiosonde
W4DEX-14D220371032022-12-07 12:10:5937.1733-79.804911718511263Clb=5.8m/s Type=DFM17 ser=[BC]22037103 Details on http://radiosondy.info
W4DEX-14D220371032022-12-07 12:10:2637.1762-79.812811118511190Clb=4.9m/s Type=DFM17 ser=[BC]22037103 Details on http://radiosondy.info
KG4IFE-1D220371032022-12-07 12:10:1837.1772-79.815511417011166Clb=4.3m/s t=-54.5C h=-1.0% p=-1.0hPa 404.010 MHz Type=DFM17 ser=22037103 Radiosonde
W4KZK-14D220371032022-12-07 12:09:5737.1786-79.819711416711124Clb=3.8m/s t=-54.1C h=-1.0% p=-1.0hPa 404.010 MHz Type=DFM17 ser=22037103 Radiosonde
W4DEX-14D220371032022-12-07 12:09:4837.179-79.820711218511108Clb=5.8m/s Type=DFM17 ser=[BC]22037103 Details on http://radiosondy.info
W4DEX-14D220371032022-12-07 12:09:1437.1817-79.828711518511023Clb=4.7m/s Type=DFM17 ser=[BC]22037103 Details on http://radiosondy.info
KG4IFE-1D220371032022-12-07 12:09:0537.1827-79.831911418310996Clb=4.9m/s t=-53.1C h=-1.0% p=-1.0hPa 404.010 MHz Type=DFM17 ser=22037103 Radiosonde
W4KZK-14D220371032022-12-07 12:08:4237.1845-79.837310918910946Clb=5.1m/s t=-52.6C h=-1.0% p=-1.0hPa 404.010 MHz Type=DFM17 ser=22037103 Radiosonde
W4DEX-14D220371032022-12-07 12:08:4037.1843-79.836811018710946Clb=5.0m/s Type=DFM17 ser=[BC]22037103 Details on http://radiosondy.info
W4DEX-14D220371032022-12-07 12:08:0837.187-79.844911518910865Clb=5.9m/s Type=DFM17 ser=[BC]22037103 Details on http://radiosondy.info
KG4IFE-1D220371032022-12-07 12:07:5637.1882-79.848711218310835Clb=4.8m/s t=-51.7C h=-1.0% p=-1.0hPa 404.010 MHz Type=DFM17 ser=22037103 Radiosonde
W4DEX-14D220371032022-12-07 12:07:3537.1896-79.853111218910789Clb=4.8m/s Type=DFM17 ser=[BC]22037103 Details on http://radiosondy.info
W4KZK-14D220371032022-12-07 12:07:2937.1903-79.855311217610774Clb=4.6m/s t=-51.2C h=-1.0% p=-1.0hPa 404.010 MHz Type=DFM17 ser=22037103 Radiosonde
W4DEX-14D220371032022-12-07 12:07:0437.1922-79.861311618910713Clb=5.2m/s Type=DFM17 ser=[BC]22037103 Details on http://radiosondy.info
KG4IFE-1D220371032022-12-07 12:06:5337.1937-79.866311418310674Clb=5.2m/s t=-50.4C h=-1.0% p=-1.0hPa 404.010 MHz Type=DFM17 ser=22037103 Radiosonde
W4DEX-14D220371032022-12-07 12:06:3337.1946-79.869711418910640Clb=4.8m/s Type=DFM17 ser=[BC]22037103 Details on http://radiosondy.info
W4KZK-14D220371032022-12-07 12:06:2137.1958-79.873711020710607Clb=4.7m/s t=-49.9C h=-1.0% p=-1.0hPa 404.010 MHz Type=DFM17 ser=22037103 Radiosonde
W4DEX-14D220371032022-12-07 12:05:5937.197-79.87811118910557Clb=7.7m/s Type=DFM17 ser=[BC]22037103 Details on http://radiosondy.info
KG4IFE-1D220371032022-12-07 12:05:4637.1984-79.883210516910507Clb=5.4m/s t=-49.4C h=-1.0% p=-1.0hPa 404.010 MHz Type=DFM17 ser=22037103 Radiosonde
W4DEX-14D220371032022-12-07 12:05:2737.1993-79.886410818910471Clb=4.0m/s Type=DFM17 ser=[BC]22037103 Details on http://radiosondy.info
W4KZK-14D220371032022-12-07 12:05:1137.2006-79.892110319810428Clb=6.8m/s t=-48.8C h=-1.0% p=-1.0hPa 404.010 MHz Type=DFM17 ser=22037103 Radiosonde
W4DEX-14D220371032022-12-07 12:04:5737.2011-79.894810518110394Clb=7.1m/s Type=DFM17 ser=[BC]22037103 Details on http://radiosondy.info
KG4IFE-1D220371032022-12-07 12:04:3937.2023-79.900410218010342Clb=6.0m/s t=-48.1C h=-1.0% p=-1.0hPa 404.010 MHz Type=DFM17 ser=22037103 Radiosonde
W4DEX-14D220371032022-12-07 12:04:2437.2028-79.903110217810316Clb=4.6m/s Type=DFM17 ser=[BC]22037103 Details on http://radiosondy.info
W4KZK-14D220371032022-12-07 12:04:0137.2043-79.9110518510257Clb=5.0m/s t=-47.3C h=-1.0% p=-1.0hPa 404.010 MHz Type=DFM17 ser=22037103 Radiosonde
W4DEX-14D220371032022-12-07 12:03:5837.2045-79.911210918110242Clb=3.9m/s Type=DFM17 ser=[BC]22037103 Details on http://radiosondy.info
KG4IFE-1D220371032022-12-07 12:03:4837.2058-79.917210918510193Clb=5.9m/s t=-46.8C h=-1.0% p=-1.0hPa 404.010 MHz Type=DFM17 ser=22037103 Radiosonde
W4DEX-14D220371032022-12-07 12:03:4537.2063-79.919410116710167Clb=4.4m/s Type=DFM17 ser=[BC]22037103 Details on http://radiosondy.info
W4KZK-14D220371032022-12-07 12:03:3537.2079-79.927410915910087Clb=4.8m/s t=-46.0C h=-1.0% p=-1.0hPa 404.010 MHz Type=DFM17 ser=22037103 Radiosonde
W4DEX-14D220371032022-12-07 12:03:3437.2078-79.926910916710087Clb=4.7m/s Type=DFM17 ser=[BC]22037103 Details on http://radiosondy.info
KG4IFE-1D220371032022-12-07 12:03:2537.2092-79.93310115210028Clb=5.6m/s t=-45.5C h=-1.0% p=-1.0hPa 404.010 MHz Type=DFM17 ser=22037103 Radiosonde
W4DEX-14D220371032022-12-07 12:03:2037.2095-79.934410416910005Clb=6.3m/s Type=DFM17 ser=[BC]22037103 Details on http://radiosondy.info
W4DEX-14D220371032022-12-07 12:02:5937.2115-79.94191071599925Clb=5.9m/s Type=DFM17 ser=[BC]22037103 Details on http://radiosondy.info
W4KZK-14D220371032022-12-07 12:02:5537.2118-79.94371001529911Clb=4.0m/s t=-44.6C h=-1.0% p=-1.0hPa 404.010 MHz Type=DFM17 ser=22037103 Radiosonde
W4DEX-14D220371032022-12-07 12:02:5237.2244-80.0011091379232Clb=5.2m/s Type=DFM17 ser=[BC]22037103 Details on http://radiosondy.info
W4DEX-14D220371032022-12-07 12:02:5137.2255-80.00731061399150Clb=4.0m/s Type=DFM17 ser=[BC]22037103 Details on http://radiosondy.info
W4DEX-14D220371032022-12-07 12:02:5037.2269-80.01351001269079Clb=4.8m/s Type=DFM17 ser=[BC]22037103 Details on http://radiosondy.info
KG4IFE-1D220371032022-12-07 12:02:4937.2272-80.01491091159064Clb=3.6m/s t=-37.7C h=-1.0% p=-1.0hPa 404.010 MHz Type=DFM17 ser=22037103 Radiosonde
W4DEX-14D220371032022-12-07 12:02:4537.2281-80.01921081308997Clb=4.9m/s Type=DFM17 ser=[BC]22037103 Details on http://radiosondy.info
W4DEX-14D220371032022-12-07 12:02:2437.2292-80.02511011308925Clb=6.0m/s Type=DFM17 ser=[BC]22037103 Details on http://radiosondy.info
KG4IFE-1D220371032022-12-07 12:02:2137.2293-80.0271951158908Clb=4.4m/s t=-36.4C h=-1.0% p=-1.0hPa 404.010 MHz Type=DFM17 ser=22037103 Radiosonde
W4DEX-14D220371032022-12-07 12:02:0237.2299-80.031961248858Clb=3.9m/s Type=DFM17 ser=[BC]22037103 Details on http://radiosondy.info
W4DEX-14D220371032022-12-07 12:01:5937.2305-80.03691031288780Clb=4.4m/s Type=DFM17 ser=[BC]22037103 Details on http://radiosondy.info
W4DEX-14D220371032022-12-07 12:01:5837.2317-80.0426971268705Clb=5.5m/s Type=DFM17 ser=[BC]22037103 Details on http://radiosondy.info
W4DEX-14D220371032022-12-07 12:01:5537.2325-80.04851091198627Clb=5.4m/s Type=DFM17 ser=[BC]22037103 Details on http://radiosondy.info
W4DEX-14D220371032022-12-07 12:01:5437.2334-80.05381061178556Clb=4.3m/s Type=DFM17 ser=[BC]22037103 Details on http://radiosondy.info
W4DEX-14D220371032022-12-07 12:01:5237.2341-80.05921061178477Clb=6.2m/s Type=DFM17 ser=[BC]22037103 Details on http://radiosondy.info
KG4IFE-1D220371032022-12-07 12:01:5137.2345-80.0625961078436Clb=4.9m/s t=-32.5C h=-1.0% p=-1.0hPa 404.010 MHz Type=DFM17 ser=22037103 Radiosonde
W4DEX-14D220371032022-12-07 12:01:5037.2348-80.0646991228401Clb=3.9m/s Type=DFM17 ser=[BC]22037103 Details on http://radiosondy.info
W4DEX-14D220371032022-12-07 12:01:4837.2357-80.0701991138330Clb=5.4m/s Type=DFM17 ser=[BC]22037103 Details on http://radiosondy.info
W4DEX-14D220371032022-12-07 12:01:4737.237-80.07511071068250Clb=6.4m/s Type=DFM17 ser=[BC]22037103 Details on http://radiosondy.info
W4DEX-14D220371032022-12-07 12:01:4637.2381-80.081151048173Clb=5.4m/s Type=DFM17 ser=[BC]22037103 Details on http://radiosondy.info
KG4IFE-1D220371032022-12-07 12:01:4537.2387-80.0831011158127Clb=3.7m/s t=-30.5C h=-1.0% p=-1.0hPa 404.010 MHz Type=DFM17 ser=22037103 Radiosonde
W4DEX-14D220371032022-12-07 12:01:4437.2391-80.08461111098099Clb=3.2m/s Type=DFM17 ser=[BC]22037103 Details on http://radiosondy.info
W4DEX-14D220371032022-12-07 12:01:3337.2401-80.08951101008029Clb=4.7m/s Type=DFM17 ser=[BC]22037103 Details on http://radiosondy.info
KG4IFE-1D220371032022-12-07 12:01:1737.2406-80.0931071047978Clb=5.0m/s t=-29.3C h=-1.0% p=-1.0hPa 404.010 MHz Type=DFM17 ser=22037103 Radiosonde
W4DEX-14D220371032022-12-07 12:01:0737.2409-80.0941971047956Clb=4.8m/s Type=DFM17 ser=[BC]22037103 Details on http://radiosondy.info
W4DEX-14D220371032022-12-07 12:00:3837.2416-80.09891081027888Clb=5.1m/s Type=DFM17 ser=[BC]22037103 Details on http://radiosondy.info
KG4IFE-1D220371032022-12-07 12:00:1737.2423-80.1027101917835Clb=4.3m/s t=-28.2C h=-1.0% p=-1.0hPa 404.010 MHz Type=DFM17 ser=22037103 Radiosonde
W4DEX-14D220371032022-12-07 12:00:0637.2424-80.1035105987819Clb=3.7m/s Type=DFM17 ser=[BC]22037103 Details on http://radiosondy.info
W4DEX-14D220371032022-12-07 11:59:3637.2432-80.108901067750Clb=5.4m/s Type=DFM17 ser=[BC]22037103 Details on http://radiosondy.info
KG4IFE-1D220371032022-12-07 11:59:1037.2436-80.11251001067685Clb=5.4m/s t=-26.9C h=-1.0% p=-1.0hPa 404.010 MHz Type=DFM17 ser=22037103 Radiosonde
W4DEX-14D220371032022-12-07 11:59:0237.2437-80.11291051027675Clb=3.7m/s Type=DFM17 ser=[BC]22037103 Details on http://radiosondy.info
W4DEX-14D220371032022-12-07 11:58:3037.2441-80.117689937598Clb=6.4m/s Type=DFM17 ser=[BC]22037103 Details on http://radiosondy.info
KG4IFE-1D220371032022-12-07 11:58:0337.244-80.121685817536Clb=4.9m/s t=-25.8C h=-1.0% p=-1.0hPa 404.010 MHz Type=DFM17 ser=22037103 Radiosonde
W4DEX-14D220371032022-12-07 11:57:5737.244-80.1218901007527Clb=5.0m/s Type=DFM17 ser=[BC]22037103 Details on http://radiosondy.info
W4DEX-14D220371032022-12-07 11:57:2137.2441-80.126590987453Clb=4.8m/s Type=DFM17 ser=[BC]22037103 Details on http://radiosondy.info
KG4IFE-1D220371032022-12-07 11:56:4937.244-80.131184917395Clb=3.5m/s t=-24.6C h=-1.0% p=-1.0hPa 404.010 MHz Type=DFM17 ser=22037103 Radiosonde
W4DEX-14D220371032022-12-07 11:56:4737.244-80.131185987392Clb=3.6m/s Type=DFM17 ser=[BC]22037103 Details on http://radiosondy.info
W4DEX-14D220371032022-12-07 11:56:1637.2442-80.135795917336Clb=5.3m/s Type=DFM17 ser=[BC]22037103 Details on http://radiosondy.info
W4DEX-14D220371032022-12-07 11:55:4737.2445-80.139991937264Clb=3.7m/s Type=DFM17 ser=[BC]22037103 Details on http://radiosondy.info
W4DEX-14D220371032022-12-07 11:55:1837.2446-80.1442100917207Clb=5.4m/s Type=DFM17 ser=[BC]22037103 Details on http://radiosondy.info
W4DEX-14D220371032022-12-07 11:54:5137.2448-80.1484103937144Clb=3.8m/s Type=DFM17 ser=[BC]22037103 Details on http://radiosondy.info
KG4IFE-1D220371032022-12-07 11:54:4937.2449-80.1489105787141Clb=3.1m/s t=-22.6C h=-1.0% p=-1.0hPa 404.010 MHz Type=DFM17 ser=22037103 Radiosonde
W4DEX-14D220371032022-12-07 11:54:2437.2451-80.1527101837086Clb=4.4m/s Type=DFM17 ser=[BC]22037103 Details on http://radiosondy.info
W4DEX-14D220371032022-12-07 11:53:5237.2451-80.156585837033Clb=3.8m/s Type=DFM17 ser=[BC]22037103 Details on http://radiosondy.info
KG4IFE-1D220371032022-12-07 11:53:4937.2451-80.1575101727020Clb=4.3m/s t=-21.5C h=-1.0% p=-1.0hPa 404.010 MHz Type=DFM17 ser=22037103 Radiosonde
W4DEX-14D220371032022-12-07 11:53:2437.2453-80.160599946962Clb=5.2m/s Type=DFM17 ser=[BC]22037103 Details on http://radiosondy.info
W4DEX-14D220371032022-12-07 11:52:5537.2457-80.1648108766888Clb=3.1m/s Type=DFM17 ser=[BC]22037103 Details on http://radiosondy.info
KG4IFE-1D220371032022-12-07 11:52:4937.2458-80.166184766870Clb=5.4m/s t=-20.4C h=-1.0% p=-1.0hPa 404.010 MHz Type=DFM17 ser=22037103 Radiosonde
W4DEX-14D220371032022-12-07 11:52:2337.246-80.168395786813Clb=3.3m/s Type=DFM17 ser=[BC]22037103 Details on http://radiosondy.info
W4DEX-14D220371032022-12-07 11:51:5837.2464-80.171996766750Clb=2.7m/s Type=DFM17 ser=[BC]22037103 Details on http://radiosondy.info
KG4IFE-1D220371032022-12-07 11:51:5437.2466-80.173599816735Clb=3.3m/s t=-19.3C h=-1.0% p=-1.0hPa 404.010 MHz Type=DFM17 ser=22037103 Radiosonde
W4DEX-14D220371032022-12-07 11:51:4337.2469-80.175492636698Clb=3.3m/s Type=DFM17 ser=[BC]22037103 Details on http://radiosondy.info
W4DEX-14D220371032022-12-07 11:51:2837.2472-80.178395726643Clb=3.5m/s Type=DFM17 ser=[BC]22037103 Details on http://radiosondy.info
KG4IFE-1D220371032022-12-07 11:51:2237.2474-80.179797596625Clb=2.5m/s t=-18.5C h=-1.0% p=-1.0hPa 404.010 MHz Type=DFM17 ser=22037103 Radiosonde
KG4IFE-1D220371032022-12-07 11:51:1837.2471-80.233875815566Clb=6.3m/s t=-11.2C h=-1.0% p=-1.0hPa 404.010 MHz Type=DFM17 ser=22037103 Radiosonde
W4DEX-14D220371032022-12-07 11:51:1737.2465-80.23881835482Clb=6.5m/s Type=DFM17 ser=[BC]22037103 Details on http://radiosondy.info
KG4IFE-1D220371032022-12-07 11:51:1637.2462-80.241980945398Clb=6.1m/s t=-10.2C h=-1.0% p=-1.0hPa 404.010 MHz Type=DFM17 ser=22037103 Radiosonde
W4DEX-14D220371032022-12-07 11:51:1537.2458-80.245890855321Clb=5.7m/s Type=DFM17 ser=[BC]22037103 Details on http://radiosondy.info
KG4IFE-1D220371032022-12-07 11:51:1437.2455-80.250189745232Clb=5.7m/s t=-9.3C h=-1.0% p=-1.0hPa 404.010 MHz Type=DFM17 ser=22037103 Radiosonde
W4DEX-14D220371032022-12-07 11:51:1337.2452-80.253481835154Clb=6.4m/s Type=DFM17 ser=[BC]22037103 Details on http://radiosondy.info
W4DEX-14D220371032022-12-07 11:51:1237.2447-80.257281785074Clb=5.3m/s Type=DFM17 ser=[BC]22037103 Details on http://radiosondy.info
W4DEX-14D220371032022-12-07 11:51:0137.2441-80.260878874998Clb=5.4m/s Type=DFM17 ser=[BC]22037103 Details on http://radiosondy.info
W4DEX-14D220371032022-12-07 11:50:3737.2437-80.264892784924Clb=5.0m/s Type=DFM17 ser=[BC]22037103 Details on http://radiosondy.info
KG4IFE-1D220371032022-12-07 11:50:3437.2436-80.265479674915Clb=4.6m/s t=-7.7C h=-1.0% p=-1.0hPa 404.010 MHz Type=DFM17 ser=22037103 Radiosonde
W4DEX-14D220371032022-12-07 11:50:0937.2433-80.268383804854Clb=5.9m/s Type=DFM17 ser=[BC]22037103 Details on http://radiosondy.info
W4DEX-14D220371032022-12-07 11:49:4337.2426-80.27288784791Clb=4.4m/s Type=DFM17 ser=[BC]22037103 Details on http://radiosondy.info
KG4IFE-1D220371032022-12-07 11:49:3837.2426-80.27391694778Clb=4.1m/s t=-6.9C h=-1.0% p=-1.0hPa 404.010 MHz Type=DFM17 ser=22037103 Radiosonde
W4DEX-14D220371032022-12-07 11:49:1537.2423-80.275675784722Clb=5.7m/s Type=DFM17 ser=[BC]22037103 Details on http://radiosondy.info
W4DEX-14D220371032022-12-07 11:48:4937.2417-80.279288784649Clb=5.2m/s Type=DFM17 ser=[BC]22037103 Details on http://radiosondy.info
KG4IFE-1D220371032022-12-07 11:48:4237.2415-80.280668854624Clb=6.1m/s t=-6.1C h=-1.0% p=-1.0hPa 404.010 MHz Type=DFM17 ser=22037103 Radiosonde
W4DEX-14D220371032022-12-07 11:48:2137.241-80.282780724572Clb=4.8m/s Type=DFM17 ser=[BC]22037103 Details on http://radiosondy.info
W4DEX-14D220371032022-12-07 11:47:5437.2406-80.28676674504Clb=4.4m/s Type=DFM17 ser=[BC]22037103 Details on http://radiosondy.info
KG4IFE-1D220371032022-12-07 11:47:4437.2403-80.287376614480Clb=4.1m/s t=-5.4C h=-1.0% p=-1.0hPa 404.010 MHz Type=DFM17 ser=22037103 Radiosonde
W4DEX-14D220371032022-12-07 11:47:2437.2401-80.289182814442Clb=3.9m/s Type=DFM17 ser=[BC]22037103 Details on http://radiosondy.info
W4DEX-14D220371032022-12-07 11:46:5537.2394-80.292873834376Clb=3.7m/s Type=DFM17 ser=[BC]22037103 Details on http://radiosondy.info
KG4IFE-1D220371032022-12-07 11:46:4337.2388-80.294966854348Clb=4.8m/s t=-4.7C h=-1.0% p=-1.0hPa 404.010 MHz Type=DFM17 ser=22037103 Radiosonde
W4DEX-14D220371032022-12-07 11:46:2637.2383-80.296578784303Clb=5.1m/s Type=DFM17 ser=[BC]22037103 Details on http://radiosondy.info
W4DEX-14D220371032022-12-07 11:45:5837.2375-80.378784225Clb=5.4m/s Type=DFM17 ser=[BC]22037103 Details on http://radiosondy.info
KG4IFE-1D220371032022-12-07 11:45:4737.2368-80.302169834182Clb=6.0m/s t=-3.9C h=-1.0% p=-1.0hPa 404.010 MHz Type=DFM17 ser=22037103 Radiosonde
W4DEX-14D220371032022-12-07 11:45:3037.2365-80.303475744148Clb=7.0m/s Type=DFM17 ser=[BC]22037103 Details on http://radiosondy.info
W4DEX-14D220371032022-12-07 11:45:0237.2354-80.306657784070Clb=5.9m/s Type=DFM17 ser=[BC]22037103 Details on http://radiosondy.info
KG4IFE-1D220371032022-12-07 11:44:4837.2346-80.308968634027Clb=4.2m/s t=-3.1C h=-1.0% p=-1.0hPa 404.010 MHz Type=DFM17 ser=22037103 Radiosonde
W4DEX-14D220371032022-12-07 11:44:3537.2342-80.309954693994Clb=5.6m/s Type=DFM17 ser=[BC]22037103 Details on http://radiosondy.info
W4DEX-14D220371032022-12-07 11:44:0637.2329-80.312763653917Clb=5.6m/s Type=DFM17 ser=[BC]22037103 Details on http://radiosondy.info
KG4IFE-1D220371032022-12-07 11:44:0137.2319-80.314863613865Clb=3.5m/s t=-2.4C h=-1.0% p=-1.0hPa 404.010 MHz Type=DFM17 ser=22037103 Radiosonde
W4DEX-14D220371032022-12-07 11:44:0037.2316-80.315248673846Clb=6.5m/s Type=DFM17 ser=[BC]22037103 Details on http://radiosondy.info
W4DEX-14D220371032022-12-07 11:43:5637.2302-80.317862633766Clb=5.1m/s Type=DFM17 ser=[BC]22037103 Details on http://radiosondy.info
KG4IFE-1D220371032022-12-07 11:43:5437.2291-80.319650613714Clb=5.9m/s t=-1.9C h=-1.0% p=-1.0hPa 404.010 MHz Type=DFM17 ser=22037103 Radiosonde
W4DEX-14D220371032022-12-07 11:43:5237.2288-80.320148653692Clb=5.5m/s Type=DFM17 ser=[BC]22037103 Details on http://radiosondy.info
W4DEX-14D220371032022-12-07 11:43:4837.2272-80.322348573624Clb=4.3m/s Type=DFM17 ser=[BC]22037103 Details on http://radiosondy.info
KG4IFE-1D220371032022-12-07 11:43:4537.2259-80.323937543565Clb=5.9m/s t=-1.0C h=-1.0% p=-1.0hPa 404.010 MHz Type=DFM17 ser=22037103 Radiosonde
W4DEX-14D220371032022-12-07 11:43:4437.2256-80.324240563549Clb=3.2m/s Type=DFM17 ser=[BC]22037103 Details on http://radiosondy.info
W4DEX-14D220371032022-12-07 11:43:3037.224-80.325850593486Clb=4.3m/s Type=DFM17 ser=[BC]22037103 Details on http://radiosondy.info
KG4IFE-1D220371032022-12-07 11:43:1937.2228-80.327941613420Clb=5.9m/s t=-0.5C h=-1.0% p=-1.0hPa 404.010 MHz Type=DFM17 ser=22037103 Radiosonde
W4DEX-14D220371032022-12-07 11:43:1737.2227-80.32848563410Clb=3.8m/s Type=DFM17 ser=[BC]22037103 Details on http://radiosondy.info
W4DEX-14D220371032022-12-07 11:43:0037.2215-80.330258633344Clb=5.3m/s Type=DFM Details on http://radiosondy.info
KG4IFE-1D220371032022-12-07 11:42:4937.2203-80.332763433282Clb=7.0m/s t=0.3C h=-1.0% p=-1.0hPa 404.010 MHz Type=DFM17 ser=22037103 Radiosonde
W4DEX-14D220371032022-12-07 11:42:4837.2203-80.332764543275Clb=6.9m/s Type=DFM Details on http://radiosondy.info
W4DEX-14D220371032022-12-07 11:42:3337.2194-80.334975373205Clb=3.7m/s Type=DFM Details on http://radiosondy.info
KG4IFE-1D220371032022-12-07 11:42:0737.2184-80.337173413142Clb=3.4m/s t=1.4C h=-1.0% p=-1.0hPa 404.010 MHz Type=DFM17 ser=22037103 Radiosonde
KG4IFE-1D220371032022-12-07 11:41:1337.2164-80.34175563030Clb=3.8m/s t=2.4C h=-1.0% p=-1.0hPa 404.010 MHz Type=DFM17 ser=22037103 Radiosonde
KG4IFE-1D220371032022-12-07 11:40:1937.2153-80.34571612889Clb=5.4m/s t=3.4C h=-1.0% p=-1.0hPa 404.010 MHz Type=DFM17 ser=22037103 Radiosonde
KG4IFE-1D220371032022-12-07 11:39:4137.2145-80.349467502732Clb=4.7m/s t=4.1C h=-1.0% p=-1.0hPa 404.010 MHz Type=DFM17 ser=22037103 Radiosonde